<?xml version="1.0" encoding="UTF-8" standalone="no" ?>
<gpx xmlns="http://www.topografix.com/GPX/1/1" xmlns:xsi="http://www.w3.org/2001/XMLSchema-instance" xsi:schemaLocation="http://www.topografix.com/GPX/1/1 http://www.topografix.com/GPX/1/1/gpx.xsd" version="1.1" creator="VisuGPX - https://www.visugpx.com">
  <metadata>
    <name>Lacs du Vénétier</name>
    <desc><![CDATA[Depart du bout de la route de Prabert jusqu\'au premier lac.]]></desc>
  </metadata>
  <trk>
    <name><![CDATA[Current Track: 13 JUL 2013 09:33]]></name>
    <trkseg>
      <trkpt lat="45.22497" lon="5.99846">
        <ele>1376.26</ele>
        <time>2013-07-13T07:33:04Z</time>
      </trkpt>
      <trkpt lat="45.22483" lon="5.99839">
        <ele>1378.67</ele>
        <time>2013-07-13T07:35:05Z</time>
      </trkpt>
      <trkpt lat="45.22488" lon="5.9983">
        <ele>1378.67</ele>
        <time>2013-07-13T07:35:17Z</time>
      </trkpt>
      <trkpt lat="45.22492" lon="5.99825">
        <ele>1379.15</ele>
        <time>2013-07-13T07:35:30Z</time>
      </trkpt>
      <trkpt lat="45.22499" lon="5.99808">
        <ele>1378.19</ele>
        <time>2013-07-13T07:35:49Z</time>
      </trkpt>
      <trkpt lat="45.22513" lon="5.99786">
        <ele>1369.54</ele>
        <time>2013-07-13T07:36:23Z</time>
      </trkpt>
      <trkpt lat="45.2252" lon="5.99768">
        <ele>1364.73</ele>
        <time>2013-07-13T07:36:39Z</time>
      </trkpt>
      <trkpt lat="45.2253" lon="5.99768">
        <ele>1362.33</ele>
        <time>2013-07-13T07:36:58Z</time>
      </trkpt>
      <trkpt lat="45.22535" lon="5.99778">
        <ele>1361.36</ele>
        <time>2013-07-13T07:37:07Z</time>
      </trkpt>
      <trkpt lat="45.22534" lon="5.99793">
        <ele>1361.84</ele>
        <time>2013-07-13T07:37:20Z</time>
      </trkpt>
      <trkpt lat="45.22533" lon="5.99806">
        <ele>1360.88</ele>
        <time>2013-07-13T07:37:37Z</time>
      </trkpt>
      <trkpt lat="45.22531" lon="5.99826">
        <ele>1360.88</ele>
        <time>2013-07-13T07:37:58Z</time>
      </trkpt>
      <trkpt lat="45.22528" lon="5.99838">
        <ele>1361.36</ele>
        <time>2013-07-13T07:38:11Z</time>
      </trkpt>
      <trkpt lat="45.22526" lon="5.99845">
        <ele>1362.33</ele>
        <time>2013-07-13T07:38:23Z</time>
      </trkpt>
      <trkpt lat="45.22522" lon="5.99855">
        <ele>1362.81</ele>
        <time>2013-07-13T07:39:15Z</time>
      </trkpt>
      <trkpt lat="45.22518" lon="5.99873">
        <ele>1362.81</ele>
        <time>2013-07-13T07:39:30Z</time>
      </trkpt>
      <trkpt lat="45.22519" lon="5.9989">
        <ele>1362.81</ele>
        <time>2013-07-13T07:39:43Z</time>
      </trkpt>
      <trkpt lat="45.2252" lon="5.99901">
        <ele>1362.81</ele>
        <time>2013-07-13T07:39:55Z</time>
      </trkpt>
      <trkpt lat="45.22519" lon="5.99908">
        <ele>1363.29</ele>
        <time>2013-07-13T07:40:11Z</time>
      </trkpt>
      <trkpt lat="45.22515" lon="5.99928">
        <ele>1362.81</ele>
        <time>2013-07-13T07:40:27Z</time>
      </trkpt>
      <trkpt lat="45.22512" lon="5.99946">
        <ele>1365.69</ele>
        <time>2013-07-13T07:40:41Z</time>
      </trkpt>
      <trkpt lat="45.22514" lon="5.9996">
        <ele>1365.69</ele>
        <time>2013-07-13T07:40:56Z</time>
      </trkpt>
      <trkpt lat="45.22512" lon="5.99969">
        <ele>1364.25</ele>
        <time>2013-07-13T07:41:11Z</time>
      </trkpt>
      <trkpt lat="45.22506" lon="5.99981">
        <ele>1363.77</ele>
        <time>2013-07-13T07:41:22Z</time>
      </trkpt>
      <trkpt lat="45.22501" lon="5.9999">
        <ele>1360.88</ele>
        <time>2013-07-13T07:41:33Z</time>
      </trkpt>
      <trkpt lat="45.22494" lon="6">
        <ele>1357.04</ele>
        <time>2013-07-13T07:41:45Z</time>
      </trkpt>
      <trkpt lat="45.2249" lon="6.00011">
        <ele>1353.67</ele>
        <time>2013-07-13T07:41:59Z</time>
      </trkpt>
      <trkpt lat="45.22489" lon="6.00013">
        <ele>1353.19</ele>
        <time>2013-07-13T07:42:01Z</time>
      </trkpt>
      <trkpt lat="45.22489" lon="6.00019">
        <ele>1352.71</ele>
        <time>2013-07-13T07:42:07Z</time>
      </trkpt>
      <trkpt lat="45.22487" lon="6.00025">
        <ele>1352.71</ele>
        <time>2013-07-13T07:42:13Z</time>
      </trkpt>
      <trkpt lat="45.22481" lon="6.00036">
        <ele>1352.23</ele>
        <time>2013-07-13T07:42:25Z</time>
      </trkpt>
      <trkpt lat="45.22473" lon="6.00041">
        <ele>1351.75</ele>
        <time>2013-07-13T07:42:37Z</time>
      </trkpt>
      <trkpt lat="45.22466" lon="6.00047">
        <ele>1349.83</ele>
        <time>2013-07-13T07:42:49Z</time>
      </trkpt>
      <trkpt lat="45.2246" lon="6.00055">
        <ele>1348.87</ele>
        <time>2013-07-13T07:43:02Z</time>
      </trkpt>
      <trkpt lat="45.22458" lon="6.00065">
        <ele>1348.39</ele>
        <time>2013-07-13T07:43:16Z</time>
      </trkpt>
      <trkpt lat="45.22457" lon="6.0007">
        <ele>1347.91</ele>
        <time>2013-07-13T07:43:22Z</time>
      </trkpt>
      <trkpt lat="45.22455" lon="6.00073">
        <ele>1347.43</ele>
        <time>2013-07-13T07:43:27Z</time>
      </trkpt>
      <trkpt lat="45.22454" lon="6.00077">
        <ele>1346.46</ele>
        <time>2013-07-13T07:43:39Z</time>
      </trkpt>
      <trkpt lat="45.22447" lon="6.00085">
        <ele>1349.35</ele>
        <time>2013-07-13T07:43:54Z</time>
      </trkpt>
      <trkpt lat="45.22446" lon="6.0009">
        <ele>1350.79</ele>
        <time>2013-07-13T07:44:03Z</time>
      </trkpt>
      <trkpt lat="45.22437" lon="6.00095">
        <ele>1352.71</ele>
        <time>2013-07-13T07:44:16Z</time>
      </trkpt>
      <trkpt lat="45.22431" lon="6.001">
        <ele>1355.12</ele>
        <time>2013-07-13T07:44:27Z</time>
      </trkpt>
      <trkpt lat="45.22429" lon="6.00103">
        <ele>1355.12</ele>
        <time>2013-07-13T07:44:31Z</time>
      </trkpt>
      <trkpt lat="45.22423" lon="6.00113">
        <ele>1357.52</ele>
        <time>2013-07-13T07:44:46Z</time>
      </trkpt>
      <trkpt lat="45.22422" lon="6.00114">
        <ele>1358</ele>
        <time>2013-07-13T07:44:47Z</time>
      </trkpt>
      <trkpt lat="45.22415" lon="6.00121">
        <ele>1358.96</ele>
        <time>2013-07-13T07:44:59Z</time>
      </trkpt>
      <trkpt lat="45.22409" lon="6.0013">
        <ele>1361.36</ele>
        <time>2013-07-13T07:45:12Z</time>
      </trkpt>
      <trkpt lat="45.224" lon="6.00136">
        <ele>1358</ele>
        <time>2013-07-13T07:45:26Z</time>
      </trkpt>
      <trkpt lat="45.22392" lon="6.0014">
        <ele>1357.04</ele>
        <time>2013-07-13T07:45:37Z</time>
      </trkpt>
      <trkpt lat="45.22385" lon="6.00145">
        <ele>1355.12</ele>
        <time>2013-07-13T07:45:50Z</time>
      </trkpt>
      <trkpt lat="45.22382" lon="6.0015">
        <ele>1354.63</ele>
        <time>2013-07-13T07:46:04Z</time>
      </trkpt>
      <trkpt lat="45.22376" lon="6.00154">
        <ele>1352.71</ele>
        <time>2013-07-13T07:46:20Z</time>
      </trkpt>
      <trkpt lat="45.22366" lon="6.00158">
        <ele>1351.75</ele>
        <time>2013-07-13T07:46:35Z</time>
      </trkpt>
      <trkpt lat="45.22356" lon="6.00165">
        <ele>1352.71</ele>
        <time>2013-07-13T07:46:49Z</time>
      </trkpt>
      <trkpt lat="45.22349" lon="6.00171">
        <ele>1355.12</ele>
        <time>2013-07-13T07:47:03Z</time>
      </trkpt>
      <trkpt lat="45.22344" lon="6.00175">
        <ele>1360.4</ele>
        <time>2013-07-13T07:47:14Z</time>
      </trkpt>
      <trkpt lat="45.22337" lon="6.00181">
        <ele>1363.29</ele>
        <time>2013-07-13T07:47:26Z</time>
      </trkpt>
      <trkpt lat="45.22334" lon="6.00188">
        <ele>1365.69</ele>
        <time>2013-07-13T07:47:41Z</time>
      </trkpt>
      <trkpt lat="45.2233" lon="6.00194">
        <ele>1369.05</ele>
        <time>2013-07-13T07:47:51Z</time>
      </trkpt>
      <trkpt lat="45.22325" lon="6.00196">
        <ele>1371.46</ele>
        <time>2013-07-13T07:48:03Z</time>
      </trkpt>
      <trkpt lat="45.22322" lon="6.00199">
        <ele>1373.86</ele>
        <time>2013-07-13T07:48:23Z</time>
      </trkpt>
      <trkpt lat="45.22315" lon="6.00202">
        <ele>1379.15</ele>
        <time>2013-07-13T07:48:40Z</time>
      </trkpt>
      <trkpt lat="45.22314" lon="6.00209">
        <ele>1385.88</ele>
        <time>2013-07-13T07:48:52Z</time>
      </trkpt>
      <trkpt lat="45.22313" lon="6.00209">
        <ele>1386.84</ele>
        <time>2013-07-13T07:49:21Z</time>
      </trkpt>
      <trkpt lat="45.22312" lon="6.0021">
        <ele>1387.8</ele>
        <time>2013-07-13T07:49:31Z</time>
      </trkpt>
      <trkpt lat="45.22312" lon="6.00213">
        <ele>1391.17</ele>
        <time>2013-07-13T07:49:42Z</time>
      </trkpt>
      <trkpt lat="45.22312" lon="6.00213">
        <ele>1391.65</ele>
        <time>2013-07-13T07:50:42Z</time>
      </trkpt>
      <trkpt lat="45.22313" lon="6.00213">
        <ele>1393.57</ele>
        <time>2013-07-13T07:52:27Z</time>
      </trkpt>
      <trkpt lat="45.22313" lon="6.00213">
        <ele>1395.97</ele>
        <time>2013-07-13T07:53:28Z</time>
      </trkpt>
      <trkpt lat="45.22313" lon="6.00212">
        <ele>1398.37</ele>
        <time>2013-07-13T07:54:08Z</time>
      </trkpt>
      <trkpt lat="45.22306" lon="6.00213">
        <ele>1401.74</ele>
        <time>2013-07-13T07:54:19Z</time>
      </trkpt>
      <trkpt lat="45.22303" lon="6.0022">
        <ele>1407.51</ele>
        <time>2013-07-13T07:54:31Z</time>
      </trkpt>
      <trkpt lat="45.22304" lon="6.00229">
        <ele>1412.31</ele>
        <time>2013-07-13T07:54:44Z</time>
      </trkpt>
      <trkpt lat="45.22303" lon="6.00239">
        <ele>1413.76</ele>
        <time>2013-07-13T07:54:57Z</time>
      </trkpt>
      <trkpt lat="45.22305" lon="6.00246">
        <ele>1415.68</ele>
        <time>2013-07-13T07:55:07Z</time>
      </trkpt>
      <trkpt lat="45.22305" lon="6.00247">
        <ele>1415.68</ele>
        <time>2013-07-13T07:55:08Z</time>
      </trkpt>
      <trkpt lat="45.22308" lon="6.00254">
        <ele>1416.16</ele>
        <time>2013-07-13T07:55:21Z</time>
      </trkpt>
      <trkpt lat="45.22313" lon="6.00262">
        <ele>1420.97</ele>
        <time>2013-07-13T07:55:32Z</time>
      </trkpt>
      <trkpt lat="45.22315" lon="6.00269">
        <ele>1423.37</ele>
        <time>2013-07-13T07:55:39Z</time>
      </trkpt>
      <trkpt lat="45.22316" lon="6.0028">
        <ele>1424.81</ele>
        <time>2013-07-13T07:55:50Z</time>
      </trkpt>
      <trkpt lat="45.22317" lon="6.00293">
        <ele>1426.25</ele>
        <time>2013-07-13T07:56:02Z</time>
      </trkpt>
      <trkpt lat="45.22318" lon="6.00307">
        <ele>1429.14</ele>
        <time>2013-07-13T07:56:15Z</time>
      </trkpt>
      <trkpt lat="45.22315" lon="6.00313">
        <ele>1429.62</ele>
        <time>2013-07-13T07:56:20Z</time>
      </trkpt>
      <trkpt lat="45.22313" lon="6.00323">
        <ele>1430.1</ele>
        <time>2013-07-13T07:56:30Z</time>
      </trkpt>
      <trkpt lat="45.22312" lon="6.00333">
        <ele>1430.1</ele>
        <time>2013-07-13T07:56:41Z</time>
      </trkpt>
      <trkpt lat="45.22308" lon="6.00346">
        <ele>1431.54</ele>
        <time>2013-07-13T07:56:53Z</time>
      </trkpt>
      <trkpt lat="45.22308" lon="6.00355">
        <ele>1432.02</ele>
        <time>2013-07-13T07:57:04Z</time>
      </trkpt>
      <trkpt lat="45.22301" lon="6.00364">
        <ele>1433.46</ele>
        <time>2013-07-13T07:57:17Z</time>
      </trkpt>
      <trkpt lat="45.223" lon="6.00367">
        <ele>1433.94</ele>
        <time>2013-07-13T07:57:20Z</time>
      </trkpt>
      <trkpt lat="45.22297" lon="6.0037">
        <ele>1433.94</ele>
        <time>2013-07-13T07:57:24Z</time>
      </trkpt>
      <trkpt lat="45.22294" lon="6.00374">
        <ele>1434.91</ele>
        <time>2013-07-13T07:57:28Z</time>
      </trkpt>
      <trkpt lat="45.22294" lon="6.00379">
        <ele>1436.35</ele>
        <time>2013-07-13T07:57:34Z</time>
      </trkpt>
      <trkpt lat="45.22289" lon="6.00389">
        <ele>1437.79</ele>
        <time>2013-07-13T07:57:44Z</time>
      </trkpt>
      <trkpt lat="45.22284" lon="6.00392">
        <ele>1438.27</ele>
        <time>2013-07-13T07:57:57Z</time>
      </trkpt>
      <trkpt lat="45.22281" lon="6.00397">
        <ele>1439.23</ele>
        <time>2013-07-13T07:58:08Z</time>
      </trkpt>
      <trkpt lat="45.22281" lon="6.00401">
        <ele>1439.23</ele>
        <time>2013-07-13T07:58:18Z</time>
      </trkpt>
      <trkpt lat="45.2228" lon="6.00405">
        <ele>1439.71</ele>
        <time>2013-07-13T07:58:26Z</time>
      </trkpt>
      <trkpt lat="45.2228" lon="6.00415">
        <ele>1440.67</ele>
        <time>2013-07-13T07:58:36Z</time>
      </trkpt>
      <trkpt lat="45.22275" lon="6.00422">
        <ele>1442.6</ele>
        <time>2013-07-13T07:58:48Z</time>
      </trkpt>
      <trkpt lat="45.22275" lon="6.0043">
        <ele>1444.52</ele>
        <time>2013-07-13T07:58:59Z</time>
      </trkpt>
      <trkpt lat="45.22274" lon="6.00436">
        <ele>1444.52</ele>
        <time>2013-07-13T07:59:09Z</time>
      </trkpt>
      <trkpt lat="45.22268" lon="6.00436">
        <ele>1444.04</ele>
        <time>2013-07-13T07:59:23Z</time>
      </trkpt>
      <trkpt lat="45.22262" lon="6.00437">
        <ele>1444.52</ele>
        <time>2013-07-13T07:59:34Z</time>
      </trkpt>
      <trkpt lat="45.22262" lon="6.00438">
        <ele>1444.52</ele>
        <time>2013-07-13T07:59:36Z</time>
      </trkpt>
      <trkpt lat="45.22253" lon="6.00439">
        <ele>1451.73</ele>
        <time>2013-07-13T07:59:49Z</time>
      </trkpt>
      <trkpt lat="45.22247" lon="6.00441">
        <ele>1454.61</ele>
        <time>2013-07-13T07:59:59Z</time>
      </trkpt>
      <trkpt lat="45.22243" lon="6.00437">
        <ele>1459.9</ele>
        <time>2013-07-13T08:00:10Z</time>
      </trkpt>
      <trkpt lat="45.22239" lon="6.00435">
        <ele>1463.74</ele>
        <time>2013-07-13T08:00:21Z</time>
      </trkpt>
      <trkpt lat="45.22235" lon="6.00436">
        <ele>1465.67</ele>
        <time>2013-07-13T08:00:31Z</time>
      </trkpt>
      <trkpt lat="45.22234" lon="6.00443">
        <ele>1468.55</ele>
        <time>2013-07-13T08:00:43Z</time>
      </trkpt>
      <trkpt lat="45.22234" lon="6.00452">
        <ele>1472.4</ele>
        <time>2013-07-13T08:00:54Z</time>
      </trkpt>
      <trkpt lat="45.22237" lon="6.00459">
        <ele>1473.36</ele>
        <time>2013-07-13T08:01:06Z</time>
      </trkpt>
      <trkpt lat="45.22234" lon="6.00468">
        <ele>1472.88</ele>
        <time>2013-07-13T08:01:19Z</time>
      </trkpt>
      <trkpt lat="45.22233" lon="6.00475">
        <ele>1474.32</ele>
        <time>2013-07-13T08:01:32Z</time>
      </trkpt>
      <trkpt lat="45.2223" lon="6.00483">
        <ele>1476.24</ele>
        <time>2013-07-13T08:01:45Z</time>
      </trkpt>
      <trkpt lat="45.22231" lon="6.00492">
        <ele>1477.68</ele>
        <time>2013-07-13T08:01:56Z</time>
      </trkpt>
      <trkpt lat="45.22231" lon="6.00493">
        <ele>1477.68</ele>
        <time>2013-07-13T08:01:58Z</time>
      </trkpt>
      <trkpt lat="45.2224" lon="6.00505">
        <ele>1479.13</ele>
        <time>2013-07-13T08:02:12Z</time>
      </trkpt>
      <trkpt lat="45.22242" lon="6.0051">
        <ele>1478.65</ele>
        <time>2013-07-13T08:02:19Z</time>
      </trkpt>
      <trkpt lat="45.22237" lon="6.00513">
        <ele>1481.05</ele>
        <time>2013-07-13T08:02:32Z</time>
      </trkpt>
      <trkpt lat="45.22223" lon="6.00511">
        <ele>1482.97</ele>
        <time>2013-07-13T08:02:45Z</time>
      </trkpt>
      <trkpt lat="45.22218" lon="6.0052">
        <ele>1485.85</ele>
        <time>2013-07-13T08:02:59Z</time>
      </trkpt>
      <trkpt lat="45.22221" lon="6.00529">
        <ele>1486.82</ele>
        <time>2013-07-13T08:03:14Z</time>
      </trkpt>
      <trkpt lat="45.22221" lon="6.00538">
        <ele>1487.3</ele>
        <time>2013-07-13T08:03:28Z</time>
      </trkpt>
      <trkpt lat="45.22224" lon="6.00546">
        <ele>1489.22</ele>
        <time>2013-07-13T08:03:40Z</time>
      </trkpt>
      <trkpt lat="45.22225" lon="6.00553">
        <ele>1492.1</ele>
        <time>2013-07-13T08:03:53Z</time>
      </trkpt>
      <trkpt lat="45.22226" lon="6.0056">
        <ele>1494.03</ele>
        <time>2013-07-13T08:04:03Z</time>
      </trkpt>
      <trkpt lat="45.22226" lon="6.0057">
        <ele>1494.03</ele>
        <time>2013-07-13T08:04:16Z</time>
      </trkpt>
      <trkpt lat="45.22226" lon="6.00579">
        <ele>1497.39</ele>
        <time>2013-07-13T08:04:29Z</time>
      </trkpt>
      <trkpt lat="45.22225" lon="6.00586">
        <ele>1497.87</ele>
        <time>2013-07-13T08:04:40Z</time>
      </trkpt>
      <trkpt lat="45.22226" lon="6.00593">
        <ele>1499.79</ele>
        <time>2013-07-13T08:04:52Z</time>
      </trkpt>
      <trkpt lat="45.22229" lon="6.00604">
        <ele>1503.64</ele>
        <time>2013-07-13T08:05:06Z</time>
      </trkpt>
      <trkpt lat="45.22233" lon="6.00612">
        <ele>1507</ele>
        <time>2013-07-13T08:05:18Z</time>
      </trkpt>
      <trkpt lat="45.22233" lon="6.00619">
        <ele>1508.93</ele>
        <time>2013-07-13T08:05:30Z</time>
      </trkpt>
      <trkpt lat="45.22235" lon="6.00626">
        <ele>1508.45</ele>
        <time>2013-07-13T08:05:41Z</time>
      </trkpt>
      <trkpt lat="45.22237" lon="6.00631">
        <ele>1511.81</ele>
        <time>2013-07-13T08:05:53Z</time>
      </trkpt>
      <trkpt lat="45.22241" lon="6.00638">
        <ele>1514.21</ele>
        <time>2013-07-13T08:06:05Z</time>
      </trkpt>
      <trkpt lat="45.22241" lon="6.00644">
        <ele>1514.69</ele>
        <time>2013-07-13T08:06:11Z</time>
      </trkpt>
      <trkpt lat="45.22244" lon="6.0065">
        <ele>1516.14</ele>
        <time>2013-07-13T08:06:21Z</time>
      </trkpt>
      <trkpt lat="45.22244" lon="6.00658">
        <ele>1513.73</ele>
        <time>2013-07-13T08:06:33Z</time>
      </trkpt>
      <trkpt lat="45.22243" lon="6.00659">
        <ele>1513.73</ele>
        <time>2013-07-13T08:06:34Z</time>
      </trkpt>
      <trkpt lat="45.2224" lon="6.0067">
        <ele>1514.21</ele>
        <time>2013-07-13T08:06:48Z</time>
      </trkpt>
      <trkpt lat="45.22239" lon="6.00676">
        <ele>1515.18</ele>
        <time>2013-07-13T08:06:59Z</time>
      </trkpt>
      <trkpt lat="45.22237" lon="6.00691">
        <ele>1517.1</ele>
        <time>2013-07-13T08:07:12Z</time>
      </trkpt>
      <trkpt lat="45.22234" lon="6.00694">
        <ele>1518.54</ele>
        <time>2013-07-13T08:07:17Z</time>
      </trkpt>
      <trkpt lat="45.2223" lon="6.00706">
        <ele>1521.9</ele>
        <time>2013-07-13T08:07:30Z</time>
      </trkpt>
      <trkpt lat="45.22228" lon="6.00722">
        <ele>1527.19</ele>
        <time>2013-07-13T08:07:44Z</time>
      </trkpt>
      <trkpt lat="45.22237" lon="6.00738">
        <ele>1529.11</ele>
        <time>2013-07-13T08:07:58Z</time>
      </trkpt>
      <trkpt lat="45.22237" lon="6.00746">
        <ele>1528.15</ele>
        <time>2013-07-13T08:08:09Z</time>
      </trkpt>
      <trkpt lat="45.22236" lon="6.00755">
        <ele>1527.19</ele>
        <time>2013-07-13T08:08:20Z</time>
      </trkpt>
      <trkpt lat="45.22235" lon="6.00763">
        <ele>1527.19</ele>
        <time>2013-07-13T08:08:30Z</time>
      </trkpt>
      <trkpt lat="45.2223" lon="6.00773">
        <ele>1528.63</ele>
        <time>2013-07-13T08:08:42Z</time>
      </trkpt>
      <trkpt lat="45.22228" lon="6.00784">
        <ele>1528.63</ele>
        <time>2013-07-13T08:08:56Z</time>
      </trkpt>
      <trkpt lat="45.22227" lon="6.00791">
        <ele>1528.63</ele>
        <time>2013-07-13T08:09:09Z</time>
      </trkpt>
      <trkpt lat="45.22227" lon="6.00798">
        <ele>1531.52</ele>
        <time>2013-07-13T08:09:23Z</time>
      </trkpt>
      <trkpt lat="45.22222" lon="6.0081">
        <ele>1535.84</ele>
        <time>2013-07-13T08:09:38Z</time>
      </trkpt>
      <trkpt lat="45.22223" lon="6.00821">
        <ele>1540.65</ele>
        <time>2013-07-13T08:09:53Z</time>
      </trkpt>
      <trkpt lat="45.22221" lon="6.00829">
        <ele>1544.01</ele>
        <time>2013-07-13T08:10:04Z</time>
      </trkpt>
      <trkpt lat="45.22223" lon="6.00836">
        <ele>1546.9</ele>
        <time>2013-07-13T08:10:17Z</time>
      </trkpt>
      <trkpt lat="45.2223" lon="6.00841">
        <ele>1550.26</ele>
        <time>2013-07-13T08:10:29Z</time>
      </trkpt>
      <trkpt lat="45.22233" lon="6.0085">
        <ele>1552.19</ele>
        <time>2013-07-13T08:10:43Z</time>
      </trkpt>
      <trkpt lat="45.22239" lon="6.0086">
        <ele>1556.51</ele>
        <time>2013-07-13T08:10:56Z</time>
      </trkpt>
      <trkpt lat="45.22243" lon="6.00869">
        <ele>1558.92</ele>
        <time>2013-07-13T08:11:09Z</time>
      </trkpt>
      <trkpt lat="45.22244" lon="6.0087">
        <ele>1558.92</ele>
        <time>2013-07-13T08:11:10Z</time>
      </trkpt>
      <trkpt lat="45.22246" lon="6.00877">
        <ele>1559.88</ele>
        <time>2013-07-13T08:11:21Z</time>
      </trkpt>
      <trkpt lat="45.22246" lon="6.00888">
        <ele>1559.4</ele>
        <time>2013-07-13T08:11:35Z</time>
      </trkpt>
      <trkpt lat="45.2225" lon="6.00894">
        <ele>1560.84</ele>
        <time>2013-07-13T08:11:47Z</time>
      </trkpt>
      <trkpt lat="45.22256" lon="6.00895">
        <ele>1562.28</ele>
        <time>2013-07-13T08:11:55Z</time>
      </trkpt>
      <trkpt lat="45.22261" lon="6.00898">
        <ele>1563.24</ele>
        <time>2013-07-13T08:12:07Z</time>
      </trkpt>
      <trkpt lat="45.22251" lon="6.00909">
        <ele>1562.76</ele>
        <time>2013-07-13T08:12:21Z</time>
      </trkpt>
      <trkpt lat="45.22245" lon="6.00916">
        <ele>1562.28</ele>
        <time>2013-07-13T08:12:36Z</time>
      </trkpt>
      <trkpt lat="45.22237" lon="6.00926">
        <ele>1560.36</ele>
        <time>2013-07-13T08:12:51Z</time>
      </trkpt>
      <trkpt lat="45.22231" lon="6.00929">
        <ele>1559.4</ele>
        <time>2013-07-13T08:13:04Z</time>
      </trkpt>
      <trkpt lat="45.22225" lon="6.0093">
        <ele>1558.92</ele>
        <time>2013-07-13T08:13:19Z</time>
      </trkpt>
      <trkpt lat="45.22227" lon="6.00939">
        <ele>1566.61</ele>
        <time>2013-07-13T08:13:35Z</time>
      </trkpt>
      <trkpt lat="45.22228" lon="6.00944">
        <ele>1569.97</ele>
        <time>2013-07-13T08:13:46Z</time>
      </trkpt>
      <trkpt lat="45.22229" lon="6.0095">
        <ele>1573.82</ele>
        <time>2013-07-13T08:14:00Z</time>
      </trkpt>
      <trkpt lat="45.22227" lon="6.00955">
        <ele>1574.3</ele>
        <time>2013-07-13T08:14:04Z</time>
      </trkpt>
      <trkpt lat="45.22228" lon="6.00964">
        <ele>1577.18</ele>
        <time>2013-07-13T08:14:16Z</time>
      </trkpt>
      <trkpt lat="45.2223" lon="6.00973">
        <ele>1578.14</ele>
        <time>2013-07-13T08:14:33Z</time>
      </trkpt>
      <trkpt lat="45.2223" lon="6.00981">
        <ele>1578.62</ele>
        <time>2013-07-13T08:14:45Z</time>
      </trkpt>
      <trkpt lat="45.22228" lon="6.00994">
        <ele>1581.99</ele>
        <time>2013-07-13T08:14:58Z</time>
      </trkpt>
      <trkpt lat="45.22229" lon="6.00995">
        <ele>1582.47</ele>
        <time>2013-07-13T08:14:59Z</time>
      </trkpt>
      <trkpt lat="45.22232" lon="6.01005">
        <ele>1584.39</ele>
        <time>2013-07-13T08:15:08Z</time>
      </trkpt>
      <trkpt lat="45.22233" lon="6.01017">
        <ele>1586.31</ele>
        <time>2013-07-13T08:15:20Z</time>
      </trkpt>
      <trkpt lat="45.22233" lon="6.01025">
        <ele>1587.75</ele>
        <time>2013-07-13T08:15:31Z</time>
      </trkpt>
      <trkpt lat="45.2223" lon="6.01034">
        <ele>1588.24</ele>
        <time>2013-07-13T08:15:41Z</time>
      </trkpt>
      <trkpt lat="45.2223" lon="6.01043">
        <ele>1590.16</ele>
        <time>2013-07-13T08:15:50Z</time>
      </trkpt>
      <trkpt lat="45.22233" lon="6.01048">
        <ele>1592.56</ele>
        <time>2013-07-13T08:15:58Z</time>
      </trkpt>
      <trkpt lat="45.22233" lon="6.0106">
        <ele>1594</ele>
        <time>2013-07-13T08:16:11Z</time>
      </trkpt>
      <trkpt lat="45.22231" lon="6.0107">
        <ele>1594.48</ele>
        <time>2013-07-13T08:16:22Z</time>
      </trkpt>
      <trkpt lat="45.2223" lon="6.01082">
        <ele>1594</ele>
        <time>2013-07-13T08:16:35Z</time>
      </trkpt>
      <trkpt lat="45.2223" lon="6.01092">
        <ele>1596.41</ele>
        <time>2013-07-13T08:16:47Z</time>
      </trkpt>
      <trkpt lat="45.22233" lon="6.011">
        <ele>1598.81</ele>
        <time>2013-07-13T08:16:59Z</time>
      </trkpt>
      <trkpt lat="45.22234" lon="6.01108">
        <ele>1602.66</ele>
        <time>2013-07-13T08:17:11Z</time>
      </trkpt>
      <trkpt lat="45.22237" lon="6.0112">
        <ele>1603.62</ele>
        <time>2013-07-13T08:17:24Z</time>
      </trkpt>
      <trkpt lat="45.22238" lon="6.01133">
        <ele>1606.5</ele>
        <time>2013-07-13T08:17:37Z</time>
      </trkpt>
      <trkpt lat="45.22235" lon="6.01143">
        <ele>1607.46</ele>
        <time>2013-07-13T08:17:54Z</time>
      </trkpt>
      <trkpt lat="45.22239" lon="6.0115">
        <ele>1606.98</ele>
        <time>2013-07-13T08:18:11Z</time>
      </trkpt>
      <trkpt lat="45.22241" lon="6.01158">
        <ele>1607.94</ele>
        <time>2013-07-13T08:18:25Z</time>
      </trkpt>
      <trkpt lat="45.22244" lon="6.01164">
        <ele>1607.94</ele>
        <time>2013-07-13T08:18:40Z</time>
      </trkpt>
      <trkpt lat="45.22245" lon="6.01169">
        <ele>1606.98</ele>
        <time>2013-07-13T08:18:55Z</time>
      </trkpt>
      <trkpt lat="45.2225" lon="6.01187">
        <ele>1605.06</ele>
        <time>2013-07-13T08:19:07Z</time>
      </trkpt>
      <trkpt lat="45.22256" lon="6.01194">
        <ele>1603.62</ele>
        <time>2013-07-13T08:19:09Z</time>
      </trkpt>
      <trkpt lat="45.22252" lon="6.01209">
        <ele>1605.06</ele>
        <time>2013-07-13T08:19:25Z</time>
      </trkpt>
      <trkpt lat="45.22244" lon="6.01219">
        <ele>1607.46</ele>
        <time>2013-07-13T08:19:40Z</time>
      </trkpt>
      <trkpt lat="45.22236" lon="6.01226">
        <ele>1607.94</ele>
        <time>2013-07-13T08:19:52Z</time>
      </trkpt>
      <trkpt lat="45.22233" lon="6.01235">
        <ele>1609.86</ele>
        <time>2013-07-13T08:20:06Z</time>
      </trkpt>
      <trkpt lat="45.22229" lon="6.01252">
        <ele>1615.63</ele>
        <time>2013-07-13T08:20:20Z</time>
      </trkpt>
      <trkpt lat="45.22228" lon="6.01256">
        <ele>1618.04</ele>
        <time>2013-07-13T08:20:33Z</time>
      </trkpt>
      <trkpt lat="45.22228" lon="6.01263">
        <ele>1619.48</ele>
        <time>2013-07-13T08:20:46Z</time>
      </trkpt>
      <trkpt lat="45.22227" lon="6.01275">
        <ele>1623.8</ele>
        <time>2013-07-13T08:21:02Z</time>
      </trkpt>
      <trkpt lat="45.22227" lon="6.01283">
        <ele>1623.32</ele>
        <time>2013-07-13T08:21:17Z</time>
      </trkpt>
      <trkpt lat="45.2223" lon="6.01294">
        <ele>1626.69</ele>
        <time>2013-07-13T08:21:30Z</time>
      </trkpt>
      <trkpt lat="45.22235" lon="6.013">
        <ele>1631.01</ele>
        <time>2013-07-13T08:21:44Z</time>
      </trkpt>
      <trkpt lat="45.2224" lon="6.01304">
        <ele>1636.3</ele>
        <time>2013-07-13T08:21:58Z</time>
      </trkpt>
      <trkpt lat="45.22243" lon="6.01303">
        <ele>1637.74</ele>
        <time>2013-07-13T08:22:03Z</time>
      </trkpt>
      <trkpt lat="45.22249" lon="6.01303">
        <ele>1643.03</ele>
        <time>2013-07-13T08:22:16Z</time>
      </trkpt>
      <trkpt lat="45.22256" lon="6.01303">
        <ele>1644.47</ele>
        <time>2013-07-13T08:22:27Z</time>
      </trkpt>
      <trkpt lat="45.22263" lon="6.01302">
        <ele>1645.43</ele>
        <time>2013-07-13T08:22:40Z</time>
      </trkpt>
      <trkpt lat="45.22271" lon="6.01301">
        <ele>1645.91</ele>
        <time>2013-07-13T08:22:59Z</time>
      </trkpt>
      <trkpt lat="45.22276" lon="6.01306">
        <ele>1646.4</ele>
        <time>2013-07-13T08:23:05Z</time>
      </trkpt>
      <trkpt lat="45.22274" lon="6.01313">
        <ele>1647.84</ele>
        <time>2013-07-13T08:23:19Z</time>
      </trkpt>
      <trkpt lat="45.22275" lon="6.01327">
        <ele>1648.32</ele>
        <time>2013-07-13T08:23:34Z</time>
      </trkpt>
      <trkpt lat="45.22275" lon="6.01332">
        <ele>1649.76</ele>
        <time>2013-07-13T08:23:39Z</time>
      </trkpt>
      <trkpt lat="45.22275" lon="6.0134">
        <ele>1650.24</ele>
        <time>2013-07-13T08:23:49Z</time>
      </trkpt>
      <trkpt lat="45.22274" lon="6.01343">
        <ele>1649.76</ele>
        <time>2013-07-13T08:24:05Z</time>
      </trkpt>
      <trkpt lat="45.22264" lon="6.01357">
        <ele>1648.32</ele>
        <time>2013-07-13T08:24:23Z</time>
      </trkpt>
      <trkpt lat="45.22254" lon="6.01367">
        <ele>1649.28</ele>
        <time>2013-07-13T08:24:35Z</time>
      </trkpt>
      <trkpt lat="45.22246" lon="6.01375">
        <ele>1649.28</ele>
        <time>2013-07-13T08:24:50Z</time>
      </trkpt>
      <trkpt lat="45.22235" lon="6.01386">
        <ele>1653.6</ele>
        <time>2013-07-13T08:25:04Z</time>
      </trkpt>
      <trkpt lat="45.22229" lon="6.01392">
        <ele>1656.01</ele>
        <time>2013-07-13T08:25:10Z</time>
      </trkpt>
      <trkpt lat="45.22225" lon="6.01404">
        <ele>1659.37</ele>
        <time>2013-07-13T08:25:25Z</time>
      </trkpt>
      <trkpt lat="45.22225" lon="6.01413">
        <ele>1660.81</ele>
        <time>2013-07-13T08:25:37Z</time>
      </trkpt>
      <trkpt lat="45.22224" lon="6.01425">
        <ele>1666.58</ele>
        <time>2013-07-13T08:25:50Z</time>
      </trkpt>
      <trkpt lat="45.22226" lon="6.01427">
        <ele>1667.54</ele>
        <time>2013-07-13T08:25:52Z</time>
      </trkpt>
      <trkpt lat="45.2223" lon="6.01437">
        <ele>1671.39</ele>
        <time>2013-07-13T08:26:00Z</time>
      </trkpt>
      <trkpt lat="45.22232" lon="6.01447">
        <ele>1673.79</ele>
        <time>2013-07-13T08:26:08Z</time>
      </trkpt>
      <trkpt lat="45.22236" lon="6.01464">
        <ele>1680.04</ele>
        <time>2013-07-13T08:26:22Z</time>
      </trkpt>
      <trkpt lat="45.22237" lon="6.01466">
        <ele>1680.52</ele>
        <time>2013-07-13T08:26:25Z</time>
      </trkpt>
      <trkpt lat="45.2224" lon="6.01479">
        <ele>1682.93</ele>
        <time>2013-07-13T08:26:35Z</time>
      </trkpt>
      <trkpt lat="45.22242" lon="6.01496">
        <ele>1684.85</ele>
        <time>2013-07-13T08:26:48Z</time>
      </trkpt>
      <trkpt lat="45.22246" lon="6.01516">
        <ele>1683.89</ele>
        <time>2013-07-13T08:27:03Z</time>
      </trkpt>
      <trkpt lat="45.22249" lon="6.01535">
        <ele>1682.93</ele>
        <time>2013-07-13T08:27:14Z</time>
      </trkpt>
      <trkpt lat="45.22249" lon="6.01541">
        <ele>1682.93</ele>
        <time>2013-07-13T08:27:19Z</time>
      </trkpt>
      <trkpt lat="45.2225" lon="6.01562">
        <ele>1682.44</ele>
        <time>2013-07-13T08:27:31Z</time>
      </trkpt>
      <trkpt lat="45.22252" lon="6.01572">
        <ele>1682.44</ele>
        <time>2013-07-13T08:27:35Z</time>
      </trkpt>
      <trkpt lat="45.22256" lon="6.01579">
        <ele>1682.44</ele>
        <time>2013-07-13T08:27:39Z</time>
      </trkpt>
      <trkpt lat="45.2226" lon="6.01591">
        <ele>1681.96</ele>
        <time>2013-07-13T08:27:46Z</time>
      </trkpt>
      <trkpt lat="45.2226" lon="6.01594">
        <ele>1681.96</ele>
        <time>2013-07-13T08:27:48Z</time>
      </trkpt>
      <trkpt lat="45.22262" lon="6.01609">
        <ele>1682.93</ele>
        <time>2013-07-13T08:27:58Z</time>
      </trkpt>
      <trkpt lat="45.22262" lon="6.01612">
        <ele>1683.41</ele>
        <time>2013-07-13T08:28:00Z</time>
      </trkpt>
      <trkpt lat="45.22262" lon="6.01619">
        <ele>1683.89</ele>
        <time>2013-07-13T08:28:05Z</time>
      </trkpt>
      <trkpt lat="45.22262" lon="6.01629">
        <ele>1683.89</ele>
        <time>2013-07-13T08:28:11Z</time>
      </trkpt>
      <trkpt lat="45.22263" lon="6.01639">
        <ele>1682.93</ele>
        <time>2013-07-13T08:28:17Z</time>
      </trkpt>
      <trkpt lat="45.22263" lon="6.01655">
        <ele>1681.48</ele>
        <time>2013-07-13T08:28:26Z</time>
      </trkpt>
      <trkpt lat="45.22265" lon="6.01678">
        <ele>1681</ele>
        <time>2013-07-13T08:28:40Z</time>
      </trkpt>
      <trkpt lat="45.22264" lon="6.01683">
        <ele>1681</ele>
        <time>2013-07-13T08:28:43Z</time>
      </trkpt>
      <trkpt lat="45.22265" lon="6.01704">
        <ele>1680.52</ele>
        <time>2013-07-13T08:28:56Z</time>
      </trkpt>
      <trkpt lat="45.22264" lon="6.01716">
        <ele>1680.04</ele>
        <time>2013-07-13T08:29:03Z</time>
      </trkpt>
      <trkpt lat="45.22262" lon="6.01727">
        <ele>1679.56</ele>
        <time>2013-07-13T08:29:09Z</time>
      </trkpt>
      <trkpt lat="45.22262" lon="6.01744">
        <ele>1678.12</ele>
        <time>2013-07-13T08:29:19Z</time>
      </trkpt>
      <trkpt lat="45.22262" lon="6.01748">
        <ele>1677.16</ele>
        <time>2013-07-13T08:29:22Z</time>
      </trkpt>
      <trkpt lat="45.22249" lon="6.01756">
        <ele>1675.23</ele>
        <time>2013-07-13T08:29:36Z</time>
      </trkpt>
      <trkpt lat="45.2224" lon="6.01757">
        <ele>1672.35</ele>
        <time>2013-07-13T08:29:47Z</time>
      </trkpt>
      <trkpt lat="45.2223" lon="6.01755">
        <ele>1672.35</ele>
        <time>2013-07-13T08:30:00Z</time>
      </trkpt>
      <trkpt lat="45.22227" lon="6.01757">
        <ele>1672.35</ele>
        <time>2013-07-13T08:30:05Z</time>
      </trkpt>
      <trkpt lat="45.22219" lon="6.01766">
        <ele>1670.91</ele>
        <time>2013-07-13T08:30:18Z</time>
      </trkpt>
      <trkpt lat="45.22219" lon="6.01767">
        <ele>1671.39</ele>
        <time>2013-07-13T08:30:19Z</time>
      </trkpt>
      <trkpt lat="45.22216" lon="6.01781">
        <ele>1673.79</ele>
        <time>2013-07-13T08:30:31Z</time>
      </trkpt>
      <trkpt lat="45.22218" lon="6.01789">
        <ele>1676.2</ele>
        <time>2013-07-13T08:30:41Z</time>
      </trkpt>
      <trkpt lat="45.22218" lon="6.0179">
        <ele>1676.68</ele>
        <time>2013-07-13T08:30:43Z</time>
      </trkpt>
      <trkpt lat="45.2222" lon="6.01793">
        <ele>1677.16</ele>
        <time>2013-07-13T08:30:47Z</time>
      </trkpt>
      <trkpt lat="45.22228" lon="6.018">
        <ele>1678.6</ele>
        <time>2013-07-13T08:30:55Z</time>
      </trkpt>
      <trkpt lat="45.22233" lon="6.01813">
        <ele>1680.04</ele>
        <time>2013-07-13T08:31:08Z</time>
      </trkpt>
      <trkpt lat="45.22236" lon="6.01823">
        <ele>1681.48</ele>
        <time>2013-07-13T08:31:19Z</time>
      </trkpt>
      <trkpt lat="45.22239" lon="6.01833">
        <ele>1682.93</ele>
        <time>2013-07-13T08:31:31Z</time>
      </trkpt>
      <trkpt lat="45.22242" lon="6.01842">
        <ele>1683.41</ele>
        <time>2013-07-13T08:31:42Z</time>
      </trkpt>
      <trkpt lat="45.22242" lon="6.0185">
        <ele>1684.37</ele>
        <time>2013-07-13T08:31:48Z</time>
      </trkpt>
      <trkpt lat="45.22242" lon="6.01861">
        <ele>1684.85</ele>
        <time>2013-07-13T08:31:58Z</time>
      </trkpt>
      <trkpt lat="45.22244" lon="6.01877">
        <ele>1685.33</ele>
        <time>2013-07-13T08:32:11Z</time>
      </trkpt>
      <trkpt lat="45.22246" lon="6.01887">
        <ele>1685.81</ele>
        <time>2013-07-13T08:32:19Z</time>
      </trkpt>
      <trkpt lat="45.22246" lon="6.01905">
        <ele>1688.21</ele>
        <time>2013-07-13T08:32:33Z</time>
      </trkpt>
      <trkpt lat="45.22247" lon="6.01919">
        <ele>1691.58</ele>
        <time>2013-07-13T08:32:45Z</time>
      </trkpt>
      <trkpt lat="45.22247" lon="6.01931">
        <ele>1695.9</ele>
        <time>2013-07-13T08:32:54Z</time>
      </trkpt>
      <trkpt lat="45.22247" lon="6.01934">
        <ele>1696.86</ele>
        <time>2013-07-13T08:32:56Z</time>
      </trkpt>
      <trkpt lat="45.22246" lon="6.01937">
        <ele>1697.34</ele>
        <time>2013-07-13T08:32:58Z</time>
      </trkpt>
      <trkpt lat="45.22246" lon="6.01952">
        <ele>1700.71</ele>
        <time>2013-07-13T08:33:09Z</time>
      </trkpt>
      <trkpt lat="45.22245" lon="6.01958">
        <ele>1701.19</ele>
        <time>2013-07-13T08:33:13Z</time>
      </trkpt>
      <trkpt lat="45.22246" lon="6.01977">
        <ele>1702.15</ele>
        <time>2013-07-13T08:33:26Z</time>
      </trkpt>
      <trkpt lat="45.22248" lon="6.01982">
        <ele>1703.11</ele>
        <time>2013-07-13T08:33:37Z</time>
      </trkpt>
      <trkpt lat="45.22248" lon="6.01982">
        <ele>1703.11</ele>
        <time>2013-07-13T08:34:15Z</time>
      </trkpt>
      <trkpt lat="45.22249" lon="6.01981">
        <ele>1703.59</ele>
        <time>2013-07-13T08:34:54Z</time>
      </trkpt>
      <trkpt lat="45.22249" lon="6.01981">
        <ele>1703.59</ele>
        <time>2013-07-13T08:35:19Z</time>
      </trkpt>
      <trkpt lat="45.22248" lon="6.01983">
        <ele>1705.04</ele>
        <time>2013-07-13T08:36:12Z</time>
      </trkpt>
      <trkpt lat="45.22249" lon="6.01983">
        <ele>1705.04</ele>
        <time>2013-07-13T08:36:58Z</time>
      </trkpt>
      <trkpt lat="45.2225" lon="6.01983">
        <ele>1703.59</ele>
        <time>2013-07-13T08:38:29Z</time>
      </trkpt>
      <trkpt lat="45.2225" lon="6.01983">
        <ele>1703.59</ele>
        <time>2013-07-13T08:39:37Z</time>
      </trkpt>
      <trkpt lat="45.2225" lon="6.01986">
        <ele>1703.11</ele>
        <time>2013-07-13T08:41:50Z</time>
      </trkpt>
      <trkpt lat="45.2225" lon="6.01999">
        <ele>1704.55</ele>
        <time>2013-07-13T08:42:02Z</time>
      </trkpt>
      <trkpt lat="45.22252" lon="6.02002">
        <ele>1706</ele>
        <time>2013-07-13T08:42:06Z</time>
      </trkpt>
      <trkpt lat="45.22252" lon="6.02015">
        <ele>1709.84</ele>
        <time>2013-07-13T08:42:18Z</time>
      </trkpt>
      <trkpt lat="45.22251" lon="6.02025">
        <ele>1712.25</ele>
        <time>2013-07-13T08:42:30Z</time>
      </trkpt>
      <trkpt lat="45.2225" lon="6.02037">
        <ele>1711.28</ele>
        <time>2013-07-13T08:42:41Z</time>
      </trkpt>
      <trkpt lat="45.2225" lon="6.02049">
        <ele>1711.76</ele>
        <time>2013-07-13T08:42:54Z</time>
      </trkpt>
      <trkpt lat="45.22248" lon="6.0206">
        <ele>1713.69</ele>
        <time>2013-07-13T08:43:08Z</time>
      </trkpt>
      <trkpt lat="45.22247" lon="6.0207">
        <ele>1716.09</ele>
        <time>2013-07-13T08:43:22Z</time>
      </trkpt>
      <trkpt lat="45.22247" lon="6.0208">
        <ele>1717.05</ele>
        <time>2013-07-13T08:43:33Z</time>
      </trkpt>
      <trkpt lat="45.22249" lon="6.02088">
        <ele>1715.61</ele>
        <time>2013-07-13T08:43:44Z</time>
      </trkpt>
      <trkpt lat="45.2225" lon="6.02097">
        <ele>1716.57</ele>
        <time>2013-07-13T08:43:53Z</time>
      </trkpt>
      <trkpt lat="45.2225" lon="6.02106">
        <ele>1718.49</ele>
        <time>2013-07-13T08:44:03Z</time>
      </trkpt>
      <trkpt lat="45.22248" lon="6.02123">
        <ele>1718.97</ele>
        <time>2013-07-13T08:44:15Z</time>
      </trkpt>
      <trkpt lat="45.22246" lon="6.02141">
        <ele>1718.97</ele>
        <time>2013-07-13T08:44:28Z</time>
      </trkpt>
      <trkpt lat="45.22245" lon="6.02146">
        <ele>1718.97</ele>
        <time>2013-07-13T08:44:32Z</time>
      </trkpt>
      <trkpt lat="45.22245" lon="6.02152">
        <ele>1719.94</ele>
        <time>2013-07-13T08:44:37Z</time>
      </trkpt>
      <trkpt lat="45.22243" lon="6.02166">
        <ele>1721.38</ele>
        <time>2013-07-13T08:44:50Z</time>
      </trkpt>
      <trkpt lat="45.22243" lon="6.02167">
        <ele>1721.86</ele>
        <time>2013-07-13T08:44:51Z</time>
      </trkpt>
      <trkpt lat="45.22245" lon="6.0217">
        <ele>1722.82</ele>
        <time>2013-07-13T08:44:54Z</time>
      </trkpt>
      <trkpt lat="45.22253" lon="6.02173">
        <ele>1727.15</ele>
        <time>2013-07-13T08:45:03Z</time>
      </trkpt>
      <trkpt lat="45.22262" lon="6.02174">
        <ele>1727.63</ele>
        <time>2013-07-13T08:45:13Z</time>
      </trkpt>
      <trkpt lat="45.22273" lon="6.02172">
        <ele>1728.59</ele>
        <time>2013-07-13T08:45:25Z</time>
      </trkpt>
      <trkpt lat="45.22277" lon="6.02171">
        <ele>1728.59</ele>
        <time>2013-07-13T08:45:36Z</time>
      </trkpt>
      <trkpt lat="45.22286" lon="6.0217">
        <ele>1728.11</ele>
        <time>2013-07-13T08:45:47Z</time>
      </trkpt>
      <trkpt lat="45.22293" lon="6.02167">
        <ele>1729.07</ele>
        <time>2013-07-13T08:45:56Z</time>
      </trkpt>
      <trkpt lat="45.22306" lon="6.02167">
        <ele>1728.11</ele>
        <time>2013-07-13T08:46:08Z</time>
      </trkpt>
      <trkpt lat="45.22308" lon="6.02168">
        <ele>1728.11</ele>
        <time>2013-07-13T08:46:10Z</time>
      </trkpt>
      <trkpt lat="45.22323" lon="6.02163">
        <ele>1729.55</ele>
        <time>2013-07-13T08:46:22Z</time>
      </trkpt>
      <trkpt lat="45.22327" lon="6.02155">
        <ele>1729.55</ele>
        <time>2013-07-13T08:46:35Z</time>
      </trkpt>
      <trkpt lat="45.22333" lon="6.02147">
        <ele>1730.99</ele>
        <time>2013-07-13T08:46:46Z</time>
      </trkpt>
      <trkpt lat="45.22338" lon="6.02139">
        <ele>1731.47</ele>
        <time>2013-07-13T08:46:58Z</time>
      </trkpt>
      <trkpt lat="45.22339" lon="6.02138">
        <ele>1730.99</ele>
        <time>2013-07-13T08:46:59Z</time>
      </trkpt>
      <trkpt lat="45.22339" lon="6.02132">
        <ele>1730.51</ele>
        <time>2013-07-13T08:47:04Z</time>
      </trkpt>
      <trkpt lat="45.22345" lon="6.0212">
        <ele>1730.03</ele>
        <time>2013-07-13T08:47:16Z</time>
      </trkpt>
      <trkpt lat="45.22345" lon="6.02119">
        <ele>1730.03</ele>
        <time>2013-07-13T08:47:17Z</time>
      </trkpt>
      <trkpt lat="45.2235" lon="6.02112">
        <ele>1728.59</ele>
        <time>2013-07-13T08:47:25Z</time>
      </trkpt>
      <trkpt lat="45.22352" lon="6.02109">
        <ele>1728.59</ele>
        <time>2013-07-13T08:47:28Z</time>
      </trkpt>
      <trkpt lat="45.22356" lon="6.02097">
        <ele>1729.55</ele>
        <time>2013-07-13T08:47:41Z</time>
      </trkpt>
      <trkpt lat="45.22361" lon="6.02099">
        <ele>1730.99</ele>
        <time>2013-07-13T08:47:52Z</time>
      </trkpt>
      <trkpt lat="45.22369" lon="6.0211">
        <ele>1730.03</ele>
        <time>2013-07-13T08:48:06Z</time>
      </trkpt>
      <trkpt lat="45.22372" lon="6.02117">
        <ele>1731.95</ele>
        <time>2013-07-13T08:48:19Z</time>
      </trkpt>
      <trkpt lat="45.22378" lon="6.02127">
        <ele>1734.84</ele>
        <time>2013-07-13T08:48:32Z</time>
      </trkpt>
      <trkpt lat="45.22382" lon="6.02136">
        <ele>1740.12</ele>
        <time>2013-07-13T08:48:45Z</time>
      </trkpt>
      <trkpt lat="45.22385" lon="6.02142">
        <ele>1744.45</ele>
        <time>2013-07-13T08:48:57Z</time>
      </trkpt>
      <trkpt lat="45.22389" lon="6.02149">
        <ele>1746.37</ele>
        <time>2013-07-13T08:49:08Z</time>
      </trkpt>
      <trkpt lat="45.22389" lon="6.0216">
        <ele>1748.29</ele>
        <time>2013-07-13T08:49:21Z</time>
      </trkpt>
      <trkpt lat="45.22387" lon="6.02169">
        <ele>1749.74</ele>
        <time>2013-07-13T08:49:34Z</time>
      </trkpt>
      <trkpt lat="45.22386" lon="6.02174">
        <ele>1750.22</ele>
        <time>2013-07-13T08:49:39Z</time>
      </trkpt>
      <trkpt lat="45.22387" lon="6.02187">
        <ele>1748.78</ele>
        <time>2013-07-13T08:49:52Z</time>
      </trkpt>
      <trkpt lat="45.22389" lon="6.02198">
        <ele>1750.7</ele>
        <time>2013-07-13T08:50:04Z</time>
      </trkpt>
      <trkpt lat="45.2239" lon="6.022">
        <ele>1751.18</ele>
        <time>2013-07-13T08:50:06Z</time>
      </trkpt>
      <trkpt lat="45.22392" lon="6.02216">
        <ele>1755.02</ele>
        <time>2013-07-13T08:50:22Z</time>
      </trkpt>
      <trkpt lat="45.22395" lon="6.02225">
        <ele>1755.99</ele>
        <time>2013-07-13T08:50:35Z</time>
      </trkpt>
      <trkpt lat="45.22396" lon="6.02236">
        <ele>1758.87</ele>
        <time>2013-07-13T08:50:48Z</time>
      </trkpt>
      <trkpt lat="45.22396" lon="6.02239">
        <ele>1759.35</ele>
        <time>2013-07-13T08:50:51Z</time>
      </trkpt>
      <trkpt lat="45.22398" lon="6.02249">
        <ele>1761.75</ele>
        <time>2013-07-13T08:51:04Z</time>
      </trkpt>
      <trkpt lat="45.22397" lon="6.02254">
        <ele>1762.23</ele>
        <time>2013-07-13T08:51:12Z</time>
      </trkpt>
      <trkpt lat="45.22398" lon="6.02259">
        <ele>1763.2</ele>
        <time>2013-07-13T08:51:22Z</time>
      </trkpt>
      <trkpt lat="45.224" lon="6.02265">
        <ele>1767.52</ele>
        <time>2013-07-13T08:51:36Z</time>
      </trkpt>
      <trkpt lat="45.22401" lon="6.02275">
        <ele>1769.92</ele>
        <time>2013-07-13T08:51:50Z</time>
      </trkpt>
      <trkpt lat="45.22404" lon="6.02287">
        <ele>1771.37</ele>
        <time>2013-07-13T08:52:05Z</time>
      </trkpt>
      <trkpt lat="45.22404" lon="6.02295">
        <ele>1771.85</ele>
        <time>2013-07-13T08:52:18Z</time>
      </trkpt>
      <trkpt lat="45.22404" lon="6.02299">
        <ele>1774.73</ele>
        <time>2013-07-13T08:52:32Z</time>
      </trkpt>
      <trkpt lat="45.22407" lon="6.02305">
        <ele>1777.61</ele>
        <time>2013-07-13T08:52:46Z</time>
      </trkpt>
      <trkpt lat="45.22409" lon="6.02313">
        <ele>1782.42</ele>
        <time>2013-07-13T08:52:59Z</time>
      </trkpt>
      <trkpt lat="45.22412" lon="6.0232">
        <ele>1783.86</ele>
        <time>2013-07-13T08:53:08Z</time>
      </trkpt>
      <trkpt lat="45.22415" lon="6.02327">
        <ele>1784.82</ele>
        <time>2013-07-13T08:53:22Z</time>
      </trkpt>
      <trkpt lat="45.22418" lon="6.0233">
        <ele>1785.79</ele>
        <time>2013-07-13T08:53:38Z</time>
      </trkpt>
      <trkpt lat="45.22418" lon="6.02335">
        <ele>1786.75</ele>
        <time>2013-07-13T08:53:49Z</time>
      </trkpt>
      <trkpt lat="45.22423" lon="6.02345">
        <ele>1787.23</ele>
        <time>2013-07-13T08:54:02Z</time>
      </trkpt>
      <trkpt lat="45.22426" lon="6.02357">
        <ele>1790.59</ele>
        <time>2013-07-13T08:54:18Z</time>
      </trkpt>
      <trkpt lat="45.22427" lon="6.0236">
        <ele>1792.52</ele>
        <time>2013-07-13T08:54:31Z</time>
      </trkpt>
      <trkpt lat="45.22427" lon="6.02361">
        <ele>1793</ele>
        <time>2013-07-13T08:55:25Z</time>
      </trkpt>
      <trkpt lat="45.22429" lon="6.02368">
        <ele>1793</ele>
        <time>2013-07-13T08:55:41Z</time>
      </trkpt>
      <trkpt lat="45.22432" lon="6.02379">
        <ele>1794.92</ele>
        <time>2013-07-13T08:55:53Z</time>
      </trkpt>
      <trkpt lat="45.22436" lon="6.02386">
        <ele>1797.32</ele>
        <time>2013-07-13T08:56:05Z</time>
      </trkpt>
      <trkpt lat="45.2244" lon="6.02392">
        <ele>1798.76</ele>
        <time>2013-07-13T08:56:18Z</time>
      </trkpt>
      <trkpt lat="45.22443" lon="6.02395">
        <ele>1800.21</ele>
        <time>2013-07-13T08:56:30Z</time>
      </trkpt>
      <trkpt lat="45.22447" lon="6.02403">
        <ele>1802.61</ele>
        <time>2013-07-13T08:56:40Z</time>
      </trkpt>
      <trkpt lat="45.2245" lon="6.02401">
        <ele>1804.53</ele>
        <time>2013-07-13T08:56:52Z</time>
      </trkpt>
      <trkpt lat="45.2245" lon="6.02394">
        <ele>1807.42</ele>
        <time>2013-07-13T08:57:04Z</time>
      </trkpt>
      <trkpt lat="45.22456" lon="6.02396">
        <ele>1807.9</ele>
        <time>2013-07-13T08:57:17Z</time>
      </trkpt>
      <trkpt lat="45.22457" lon="6.024">
        <ele>1807.9</ele>
        <time>2013-07-13T08:57:21Z</time>
      </trkpt>
      <trkpt lat="45.22461" lon="6.02407">
        <ele>1806.45</ele>
        <time>2013-07-13T08:57:32Z</time>
      </trkpt>
      <trkpt lat="45.22467" lon="6.02415">
        <ele>1806.45</ele>
        <time>2013-07-13T08:57:47Z</time>
      </trkpt>
      <trkpt lat="45.2247" lon="6.0242">
        <ele>1810.3</ele>
        <time>2013-07-13T08:57:59Z</time>
      </trkpt>
      <trkpt lat="45.2247" lon="6.02416">
        <ele>1813.18</ele>
        <time>2013-07-13T08:58:10Z</time>
      </trkpt>
      <trkpt lat="45.2247" lon="6.02407">
        <ele>1814.15</ele>
        <time>2013-07-13T08:58:18Z</time>
      </trkpt>
      <trkpt lat="45.22472" lon="6.024">
        <ele>1815.11</ele>
        <time>2013-07-13T08:58:30Z</time>
      </trkpt>
      <trkpt lat="45.22473" lon="6.02403">
        <ele>1815.59</ele>
        <time>2013-07-13T08:58:35Z</time>
      </trkpt>
      <trkpt lat="45.22478" lon="6.02416">
        <ele>1817.99</ele>
        <time>2013-07-13T08:58:47Z</time>
      </trkpt>
      <trkpt lat="45.22479" lon="6.02426">
        <ele>1821.84</ele>
        <time>2013-07-13T08:58:57Z</time>
      </trkpt>
      <trkpt lat="45.22481" lon="6.02433">
        <ele>1824.72</ele>
        <time>2013-07-13T08:59:10Z</time>
      </trkpt>
      <trkpt lat="45.22483" lon="6.02433">
        <ele>1826.64</ele>
        <time>2013-07-13T08:59:16Z</time>
      </trkpt>
      <trkpt lat="45.22488" lon="6.02434">
        <ele>1827.12</ele>
        <time>2013-07-13T08:59:26Z</time>
      </trkpt>
      <trkpt lat="45.22492" lon="6.0244">
        <ele>1827.6</ele>
        <time>2013-07-13T08:59:36Z</time>
      </trkpt>
      <trkpt lat="45.22497" lon="6.02444">
        <ele>1829.05</ele>
        <time>2013-07-13T08:59:48Z</time>
      </trkpt>
      <trkpt lat="45.22502" lon="6.02444">
        <ele>1830.01</ele>
        <time>2013-07-13T08:59:59Z</time>
      </trkpt>
      <trkpt lat="45.22506" lon="6.02448">
        <ele>1830.49</ele>
        <time>2013-07-13T09:00:09Z</time>
      </trkpt>
      <trkpt lat="45.22511" lon="6.02451">
        <ele>1830.49</ele>
        <time>2013-07-13T09:00:15Z</time>
      </trkpt>
      <trkpt lat="45.2252" lon="6.02457">
        <ele>1831.93</ele>
        <time>2013-07-13T09:00:29Z</time>
      </trkpt>
      <trkpt lat="45.22527" lon="6.02462">
        <ele>1832.41</ele>
        <time>2013-07-13T09:00:41Z</time>
      </trkpt>
      <trkpt lat="45.22531" lon="6.02466">
        <ele>1833.85</ele>
        <time>2013-07-13T09:00:53Z</time>
      </trkpt>
      <trkpt lat="45.22531" lon="6.0247">
        <ele>1832.89</ele>
        <time>2013-07-13T09:01:00Z</time>
      </trkpt>
      <trkpt lat="45.22532" lon="6.02479">
        <ele>1832.89</ele>
        <time>2013-07-13T09:01:09Z</time>
      </trkpt>
      <trkpt lat="45.22539" lon="6.02479">
        <ele>1836.74</ele>
        <time>2013-07-13T09:01:21Z</time>
      </trkpt>
      <trkpt lat="45.2254" lon="6.0248">
        <ele>1836.74</ele>
        <time>2013-07-13T09:01:25Z</time>
      </trkpt>
      <trkpt lat="45.22546" lon="6.02485">
        <ele>1837.22</ele>
        <time>2013-07-13T09:01:30Z</time>
      </trkpt>
      <trkpt lat="45.22552" lon="6.02486">
        <ele>1841.06</ele>
        <time>2013-07-13T09:01:42Z</time>
      </trkpt>
      <trkpt lat="45.22559" lon="6.02496">
        <ele>1841.54</ele>
        <time>2013-07-13T09:01:54Z</time>
      </trkpt>
      <trkpt lat="45.22565" lon="6.02499">
        <ele>1842.5</ele>
        <time>2013-07-13T09:02:04Z</time>
      </trkpt>
      <trkpt lat="45.22566" lon="6.02499">
        <ele>1842.98</ele>
        <time>2013-07-13T09:02:05Z</time>
      </trkpt>
      <trkpt lat="45.22577" lon="6.02504">
        <ele>1845.87</ele>
        <time>2013-07-13T09:02:18Z</time>
      </trkpt>
      <trkpt lat="45.22584" lon="6.02505">
        <ele>1847.79</ele>
        <time>2013-07-13T09:02:27Z</time>
      </trkpt>
      <trkpt lat="45.22591" lon="6.02505">
        <ele>1846.83</ele>
        <time>2013-07-13T09:02:38Z</time>
      </trkpt>
      <trkpt lat="45.22595" lon="6.02503">
        <ele>1848.27</ele>
        <time>2013-07-13T09:02:45Z</time>
      </trkpt>
      <trkpt lat="45.22604" lon="6.02501">
        <ele>1850.68</ele>
        <time>2013-07-13T09:02:57Z</time>
      </trkpt>
      <trkpt lat="45.2261" lon="6.02498">
        <ele>1852.12</ele>
        <time>2013-07-13T09:03:07Z</time>
      </trkpt>
      <trkpt lat="45.22611" lon="6.02505">
        <ele>1851.64</ele>
        <time>2013-07-13T09:03:18Z</time>
      </trkpt>
      <trkpt lat="45.22617" lon="6.02503">
        <ele>1852.12</ele>
        <time>2013-07-13T09:03:28Z</time>
      </trkpt>
      <trkpt lat="45.22618" lon="6.02502">
        <ele>1852.6</ele>
        <time>2013-07-13T09:03:30Z</time>
      </trkpt>
      <trkpt lat="45.22622" lon="6.02501">
        <ele>1853.08</ele>
        <time>2013-07-13T09:03:40Z</time>
      </trkpt>
      <trkpt lat="45.2262" lon="6.0251">
        <ele>1852.12</ele>
        <time>2013-07-13T09:03:49Z</time>
      </trkpt>
      <trkpt lat="45.22618" lon="6.02514">
        <ele>1852.12</ele>
        <time>2013-07-13T09:03:54Z</time>
      </trkpt>
      <trkpt lat="45.22623" lon="6.02519">
        <ele>1856.44</ele>
        <time>2013-07-13T09:04:04Z</time>
      </trkpt>
      <trkpt lat="45.22626" lon="6.02518">
        <ele>1856.92</ele>
        <time>2013-07-13T09:04:12Z</time>
      </trkpt>
      <trkpt lat="45.22633" lon="6.0252">
        <ele>1859.81</ele>
        <time>2013-07-13T09:04:23Z</time>
      </trkpt>
      <trkpt lat="45.22635" lon="6.02522">
        <ele>1860.77</ele>
        <time>2013-07-13T09:04:28Z</time>
      </trkpt>
      <trkpt lat="45.22641" lon="6.02519">
        <ele>1864.13</ele>
        <time>2013-07-13T09:04:41Z</time>
      </trkpt>
      <trkpt lat="45.22648" lon="6.02518">
        <ele>1865.58</ele>
        <time>2013-07-13T09:04:54Z</time>
      </trkpt>
      <trkpt lat="45.22654" lon="6.02516">
        <ele>1867.98</ele>
        <time>2013-07-13T09:05:09Z</time>
      </trkpt>
      <trkpt lat="45.22659" lon="6.02511">
        <ele>1868.94</ele>
        <time>2013-07-13T09:05:19Z</time>
      </trkpt>
      <trkpt lat="45.22665" lon="6.02514">
        <ele>1871.34</ele>
        <time>2013-07-13T09:05:32Z</time>
      </trkpt>
      <trkpt lat="45.22669" lon="6.02516">
        <ele>1872.79</ele>
        <time>2013-07-13T09:05:42Z</time>
      </trkpt>
      <trkpt lat="45.22671" lon="6.02518">
        <ele>1874.23</ele>
        <time>2013-07-13T09:05:55Z</time>
      </trkpt>
      <trkpt lat="45.22677" lon="6.02519">
        <ele>1874.71</ele>
        <time>2013-07-13T09:06:07Z</time>
      </trkpt>
      <trkpt lat="45.2268" lon="6.02517">
        <ele>1876.15</ele>
        <time>2013-07-13T09:06:15Z</time>
      </trkpt>
      <trkpt lat="45.22684" lon="6.02512">
        <ele>1878.07</ele>
        <time>2013-07-13T09:06:26Z</time>
      </trkpt>
      <trkpt lat="45.22689" lon="6.0251">
        <ele>1880</ele>
        <time>2013-07-13T09:06:39Z</time>
      </trkpt>
      <trkpt lat="45.22694" lon="6.02512">
        <ele>1880.96</ele>
        <time>2013-07-13T09:06:50Z</time>
      </trkpt>
      <trkpt lat="45.22698" lon="6.02509">
        <ele>1883.84</ele>
        <time>2013-07-13T09:07:00Z</time>
      </trkpt>
      <trkpt lat="45.22703" lon="6.02508">
        <ele>1885.28</ele>
        <time>2013-07-13T09:07:10Z</time>
      </trkpt>
      <trkpt lat="45.22709" lon="6.02508">
        <ele>1885.28</ele>
        <time>2013-07-13T09:07:22Z</time>
      </trkpt>
      <trkpt lat="45.22714" lon="6.02511">
        <ele>1884.8</ele>
        <time>2013-07-13T09:07:30Z</time>
      </trkpt>
      <trkpt lat="45.22722" lon="6.0251">
        <ele>1886.72</ele>
        <time>2013-07-13T09:07:42Z</time>
      </trkpt>
      <trkpt lat="45.22727" lon="6.02515">
        <ele>1887.21</ele>
        <time>2013-07-13T09:07:53Z</time>
      </trkpt>
      <trkpt lat="45.22733" lon="6.02513">
        <ele>1890.57</ele>
        <time>2013-07-13T09:08:06Z</time>
      </trkpt>
      <trkpt lat="45.22736" lon="6.0251">
        <ele>1892.49</ele>
        <time>2013-07-13T09:08:16Z</time>
      </trkpt>
      <trkpt lat="45.22739" lon="6.02508">
        <ele>1895.38</ele>
        <time>2013-07-13T09:08:28Z</time>
      </trkpt>
      <trkpt lat="45.22742" lon="6.02509">
        <ele>1897.78</ele>
        <time>2013-07-13T09:08:39Z</time>
      </trkpt>
      <trkpt lat="45.22744" lon="6.02509">
        <ele>1899.22</ele>
        <time>2013-07-13T09:08:51Z</time>
      </trkpt>
      <trkpt lat="45.22752" lon="6.02514">
        <ele>1902.59</ele>
        <time>2013-07-13T09:09:05Z</time>
      </trkpt>
      <trkpt lat="45.22758" lon="6.0252">
        <ele>1905.95</ele>
        <time>2013-07-13T09:09:18Z</time>
      </trkpt>
      <trkpt lat="45.22762" lon="6.02525">
        <ele>1909.8</ele>
        <time>2013-07-13T09:09:30Z</time>
      </trkpt>
      <trkpt lat="45.2277" lon="6.02531">
        <ele>1912.68</ele>
        <time>2013-07-13T09:09:41Z</time>
      </trkpt>
      <trkpt lat="45.22778" lon="6.02539">
        <ele>1914.6</ele>
        <time>2013-07-13T09:09:53Z</time>
      </trkpt>
      <trkpt lat="45.22785" lon="6.02542">
        <ele>1916.04</ele>
        <time>2013-07-13T09:10:06Z</time>
      </trkpt>
      <trkpt lat="45.2279" lon="6.02551">
        <ele>1920.37</ele>
        <time>2013-07-13T09:10:19Z</time>
      </trkpt>
      <trkpt lat="45.22794" lon="6.02554">
        <ele>1919.89</ele>
        <time>2013-07-13T09:10:30Z</time>
      </trkpt>
      <trkpt lat="45.22798" lon="6.0256">
        <ele>1917.49</ele>
        <time>2013-07-13T09:10:41Z</time>
      </trkpt>
      <trkpt lat="45.22802" lon="6.02564">
        <ele>1916.04</ele>
        <time>2013-07-13T09:10:47Z</time>
      </trkpt>
      <trkpt lat="45.22809" lon="6.02574">
        <ele>1914.6</ele>
        <time>2013-07-13T09:10:59Z</time>
      </trkpt>
      <trkpt lat="45.22813" lon="6.02584">
        <ele>1914.6</ele>
        <time>2013-07-13T09:11:12Z</time>
      </trkpt>
      <trkpt lat="45.22818" lon="6.0259">
        <ele>1914.6</ele>
        <time>2013-07-13T09:11:24Z</time>
      </trkpt>
      <trkpt lat="45.22824" lon="6.02599">
        <ele>1913.16</ele>
        <time>2013-07-13T09:11:35Z</time>
      </trkpt>
      <trkpt lat="45.22828" lon="6.02608">
        <ele>1913.64</ele>
        <time>2013-07-13T09:11:49Z</time>
      </trkpt>
      <trkpt lat="45.2283" lon="6.02613">
        <ele>1917.49</ele>
        <time>2013-07-13T09:12:02Z</time>
      </trkpt>
      <trkpt lat="45.22835" lon="6.02619">
        <ele>1921.81</ele>
        <time>2013-07-13T09:12:14Z</time>
      </trkpt>
      <trkpt lat="45.22838" lon="6.02623">
        <ele>1923.74</ele>
        <time>2013-07-13T09:12:27Z</time>
      </trkpt>
      <trkpt lat="45.22841" lon="6.02626">
        <ele>1924.22</ele>
        <time>2013-07-13T09:12:41Z</time>
      </trkpt>
      <trkpt lat="45.22845" lon="6.02629">
        <ele>1924.22</ele>
        <time>2013-07-13T09:12:54Z</time>
      </trkpt>
      <trkpt lat="45.22846" lon="6.02631">
        <ele>1923.74</ele>
        <time>2013-07-13T09:13:12Z</time>
      </trkpt>
      <trkpt lat="45.22846" lon="6.02632">
        <ele>1924.22</ele>
        <time>2013-07-13T09:13:46Z</time>
      </trkpt>
      <trkpt lat="45.22847" lon="6.02632">
        <ele>1924.7</ele>
        <time>2013-07-13T09:15:48Z</time>
      </trkpt>
      <trkpt lat="45.22848" lon="6.02633">
        <ele>1924.7</ele>
        <time>2013-07-13T09:17:00Z</time>
      </trkpt>
      <trkpt lat="45.22848" lon="6.02634">
        <ele>1925.18</ele>
        <time>2013-07-13T09:17:37Z</time>
      </trkpt>
      <trkpt lat="45.22848" lon="6.02635">
        <ele>1925.18</ele>
        <time>2013-07-13T09:18:14Z</time>
      </trkpt>
      <trkpt lat="45.22849" lon="6.02646">
        <ele>1926.14</ele>
        <time>2013-07-13T09:18:20Z</time>
      </trkpt>
      <trkpt lat="45.22847" lon="6.02657">
        <ele>1926.62</ele>
        <time>2013-07-13T09:18:33Z</time>
      </trkpt>
      <trkpt lat="45.22848" lon="6.02664">
        <ele>1927.58</ele>
        <time>2013-07-13T09:18:43Z</time>
      </trkpt>
      <trkpt lat="45.22849" lon="6.02671">
        <ele>1930.46</ele>
        <time>2013-07-13T09:18:56Z</time>
      </trkpt>
      <trkpt lat="45.22849" lon="6.02679">
        <ele>1931.91</ele>
        <time>2013-07-13T09:19:08Z</time>
      </trkpt>
      <trkpt lat="45.22849" lon="6.02683">
        <ele>1932.87</ele>
        <time>2013-07-13T09:19:21Z</time>
      </trkpt>
      <trkpt lat="45.22848" lon="6.0269">
        <ele>1930.95</ele>
        <time>2013-07-13T09:19:33Z</time>
      </trkpt>
      <trkpt lat="45.22847" lon="6.02696">
        <ele>1929.02</ele>
        <time>2013-07-13T09:19:46Z</time>
      </trkpt>
      <trkpt lat="45.22847" lon="6.02703">
        <ele>1929.02</ele>
        <time>2013-07-13T09:20:00Z</time>
      </trkpt>
      <trkpt lat="45.22849" lon="6.02704">
        <ele>1930.46</ele>
        <time>2013-07-13T09:20:12Z</time>
      </trkpt>
      <trkpt lat="45.22854" lon="6.02705">
        <ele>1933.83</ele>
        <time>2013-07-13T09:20:25Z</time>
      </trkpt>
      <trkpt lat="45.22857" lon="6.02707">
        <ele>1938.16</ele>
        <time>2013-07-13T09:20:38Z</time>
      </trkpt>
      <trkpt lat="45.22854" lon="6.02715">
        <ele>1940.56</ele>
        <time>2013-07-13T09:20:51Z</time>
      </trkpt>
      <trkpt lat="45.2285" lon="6.02721">
        <ele>1942</ele>
        <time>2013-07-13T09:21:06Z</time>
      </trkpt>
      <trkpt lat="45.2285" lon="6.02726">
        <ele>1945.36</ele>
        <time>2013-07-13T09:21:19Z</time>
      </trkpt>
      <trkpt lat="45.2285" lon="6.0273">
        <ele>1947.29</ele>
        <time>2013-07-13T09:21:32Z</time>
      </trkpt>
      <trkpt lat="45.22849" lon="6.02742">
        <ele>1949.69</ele>
        <time>2013-07-13T09:21:48Z</time>
      </trkpt>
      <trkpt lat="45.2285" lon="6.02739">
        <ele>1952.57</ele>
        <time>2013-07-13T09:21:59Z</time>
      </trkpt>
      <trkpt lat="45.22854" lon="6.02737">
        <ele>1954.98</ele>
        <time>2013-07-13T09:22:07Z</time>
      </trkpt>
      <trkpt lat="45.22862" lon="6.02736">
        <ele>1957.86</ele>
        <time>2013-07-13T09:22:19Z</time>
      </trkpt>
      <trkpt lat="45.2287" lon="6.02735">
        <ele>1964.11</ele>
        <time>2013-07-13T09:22:32Z</time>
      </trkpt>
      <trkpt lat="45.22876" lon="6.0273">
        <ele>1965.55</ele>
        <time>2013-07-13T09:22:44Z</time>
      </trkpt>
      <trkpt lat="45.2288" lon="6.02725">
        <ele>1965.55</ele>
        <time>2013-07-13T09:22:56Z</time>
      </trkpt>
      <trkpt lat="45.22885" lon="6.02725">
        <ele>1965.55</ele>
        <time>2013-07-13T09:23:07Z</time>
      </trkpt>
      <trkpt lat="45.22885" lon="6.02725">
        <ele>1965.55</ele>
        <time>2013-07-13T09:23:18Z</time>
      </trkpt>
      <trkpt lat="45.22891" lon="6.02728">
        <ele>1966.51</ele>
        <time>2013-07-13T09:23:27Z</time>
      </trkpt>
      <trkpt lat="45.22898" lon="6.02726">
        <ele>1967.96</ele>
        <time>2013-07-13T09:23:36Z</time>
      </trkpt>
      <trkpt lat="45.22903" lon="6.02725">
        <ele>1968.44</ele>
        <time>2013-07-13T09:23:40Z</time>
      </trkpt>
      <trkpt lat="45.22909" lon="6.02724">
        <ele>1966.99</ele>
        <time>2013-07-13T09:23:52Z</time>
      </trkpt>
      <trkpt lat="45.22913" lon="6.02725">
        <ele>1967.48</ele>
        <time>2013-07-13T09:24:04Z</time>
      </trkpt>
      <trkpt lat="45.2292" lon="6.02722">
        <ele>1968.92</ele>
        <time>2013-07-13T09:24:16Z</time>
      </trkpt>
      <trkpt lat="45.22922" lon="6.02722">
        <ele>1969.4</ele>
        <time>2013-07-13T09:24:18Z</time>
      </trkpt>
      <trkpt lat="45.22925" lon="6.02727">
        <ele>1968.92</ele>
        <time>2013-07-13T09:24:23Z</time>
      </trkpt>
      <trkpt lat="45.22931" lon="6.02729">
        <ele>1970.36</ele>
        <time>2013-07-13T09:24:35Z</time>
      </trkpt>
      <trkpt lat="45.22934" lon="6.02729">
        <ele>1972.28</ele>
        <time>2013-07-13T09:24:45Z</time>
      </trkpt>
      <trkpt lat="45.22941" lon="6.02729">
        <ele>1974.69</ele>
        <time>2013-07-13T09:24:56Z</time>
      </trkpt>
      <trkpt lat="45.22944" lon="6.02729">
        <ele>1975.65</ele>
        <time>2013-07-13T09:25:08Z</time>
      </trkpt>
      <trkpt lat="45.22948" lon="6.02726">
        <ele>1977.09</ele>
        <time>2013-07-13T09:25:20Z</time>
      </trkpt>
      <trkpt lat="45.22949" lon="6.02725">
        <ele>1978.05</ele>
        <time>2013-07-13T09:25:39Z</time>
      </trkpt>
      <trkpt lat="45.2295" lon="6.02724">
        <ele>1978.53</ele>
        <time>2013-07-13T09:26:04Z</time>
      </trkpt>
      <trkpt lat="45.22959" lon="6.02711">
        <ele>1980.45</ele>
        <time>2013-07-13T09:26:15Z</time>
      </trkpt>
      <trkpt lat="45.2296" lon="6.02709">
        <ele>1980.93</ele>
        <time>2013-07-13T09:26:17Z</time>
      </trkpt>
      <trkpt lat="45.22965" lon="6.02704">
        <ele>1983.34</ele>
        <time>2013-07-13T09:26:22Z</time>
      </trkpt>
      <trkpt lat="45.22972" lon="6.02693">
        <ele>1986.22</ele>
        <time>2013-07-13T09:26:35Z</time>
      </trkpt>
      <trkpt lat="45.22973" lon="6.02692">
        <ele>1986.22</ele>
        <time>2013-07-13T09:26:37Z</time>
      </trkpt>
      <trkpt lat="45.22979" lon="6.02687">
        <ele>1987.18</ele>
        <time>2013-07-13T09:26:48Z</time>
      </trkpt>
      <trkpt lat="45.22986" lon="6.0268">
        <ele>1990.55</ele>
        <time>2013-07-13T09:26:59Z</time>
      </trkpt>
      <trkpt lat="45.22986" lon="6.02679">
        <ele>1991.03</ele>
        <time>2013-07-13T09:27:00Z</time>
      </trkpt>
      <trkpt lat="45.22987" lon="6.02673">
        <ele>1991.51</ele>
        <time>2013-07-13T09:27:05Z</time>
      </trkpt>
      <trkpt lat="45.22987" lon="6.02664">
        <ele>1993.91</ele>
        <time>2013-07-13T09:27:14Z</time>
      </trkpt>
      <trkpt lat="45.22985" lon="6.02652">
        <ele>1996.32</ele>
        <time>2013-07-13T09:27:26Z</time>
      </trkpt>
      <trkpt lat="45.22985" lon="6.02647">
        <ele>1996.32</ele>
        <time>2013-07-13T09:27:31Z</time>
      </trkpt>
      <trkpt lat="45.22984" lon="6.02644">
        <ele>1996.8</ele>
        <time>2013-07-13T09:27:33Z</time>
      </trkpt>
      <trkpt lat="45.2298" lon="6.02633">
        <ele>1996.8</ele>
        <time>2013-07-13T09:27:44Z</time>
      </trkpt>
      <trkpt lat="45.22978" lon="6.02626">
        <ele>1998.24</ele>
        <time>2013-07-13T09:27:55Z</time>
      </trkpt>
      <trkpt lat="45.22984" lon="6.02632">
        <ele>1999.68</ele>
        <time>2013-07-13T09:28:07Z</time>
      </trkpt>
      <trkpt lat="45.22991" lon="6.02638">
        <ele>2001.12</ele>
        <time>2013-07-13T09:28:19Z</time>
      </trkpt>
      <trkpt lat="45.22998" lon="6.02647">
        <ele>2004.49</ele>
        <time>2013-07-13T09:28:32Z</time>
      </trkpt>
      <trkpt lat="45.23004" lon="6.02658">
        <ele>2005.93</ele>
        <time>2013-07-13T09:28:44Z</time>
      </trkpt>
      <trkpt lat="45.23005" lon="6.02662">
        <ele>2006.89</ele>
        <time>2013-07-13T09:28:48Z</time>
      </trkpt>
      <trkpt lat="45.23008" lon="6.02673">
        <ele>2005.93</ele>
        <time>2013-07-13T09:29:00Z</time>
      </trkpt>
      <trkpt lat="45.23012" lon="6.02681">
        <ele>2005.45</ele>
        <time>2013-07-13T09:29:12Z</time>
      </trkpt>
      <trkpt lat="45.23013" lon="6.02691">
        <ele>2006.41</ele>
        <time>2013-07-13T09:29:24Z</time>
      </trkpt>
      <trkpt lat="45.23014" lon="6.02695">
        <ele>2007.85</ele>
        <time>2013-07-13T09:29:34Z</time>
      </trkpt>
      <trkpt lat="45.23014" lon="6.02695">
        <ele>2008.33</ele>
        <time>2013-07-13T09:29:36Z</time>
      </trkpt>
      <trkpt lat="45.23017" lon="6.02687">
        <ele>2010.73</ele>
        <time>2013-07-13T09:29:47Z</time>
      </trkpt>
      <trkpt lat="45.23018" lon="6.02677">
        <ele>2011.7</ele>
        <time>2013-07-13T09:30:00Z</time>
      </trkpt>
      <trkpt lat="45.23018" lon="6.02669">
        <ele>2012.66</ele>
        <time>2013-07-13T09:30:09Z</time>
      </trkpt>
      <trkpt lat="45.23015" lon="6.02659">
        <ele>2013.62</ele>
        <time>2013-07-13T09:30:20Z</time>
      </trkpt>
      <trkpt lat="45.23014" lon="6.02653">
        <ele>2014.58</ele>
        <time>2013-07-13T09:30:25Z</time>
      </trkpt>
      <trkpt lat="45.23012" lon="6.02641">
        <ele>2016.5</ele>
        <time>2013-07-13T09:30:38Z</time>
      </trkpt>
      <trkpt lat="45.23012" lon="6.02636">
        <ele>2016.98</ele>
        <time>2013-07-13T09:30:42Z</time>
      </trkpt>
      <trkpt lat="45.23012" lon="6.02625">
        <ele>2017.46</ele>
        <time>2013-07-13T09:30:55Z</time>
      </trkpt>
      <trkpt lat="45.23014" lon="6.02619">
        <ele>2018.91</ele>
        <time>2013-07-13T09:31:05Z</time>
      </trkpt>
      <trkpt lat="45.2302" lon="6.02616">
        <ele>2017.94</ele>
        <time>2013-07-13T09:31:16Z</time>
      </trkpt>
      <trkpt lat="45.23023" lon="6.02611">
        <ele>2020.83</ele>
        <time>2013-07-13T09:31:28Z</time>
      </trkpt>
      <trkpt lat="45.23028" lon="6.02612">
        <ele>2024.67</ele>
        <time>2013-07-13T09:31:40Z</time>
      </trkpt>
      <trkpt lat="45.23032" lon="6.02617">
        <ele>2025.64</ele>
        <time>2013-07-13T09:31:52Z</time>
      </trkpt>
      <trkpt lat="45.23032" lon="6.02617">
        <ele>2025.64</ele>
        <time>2013-07-13T09:31:53Z</time>
      </trkpt>
      <trkpt lat="45.23036" lon="6.02624">
        <ele>2028.04</ele>
        <time>2013-07-13T09:32:05Z</time>
      </trkpt>
      <trkpt lat="45.23039" lon="6.02634">
        <ele>2028.04</ele>
        <time>2013-07-13T09:32:16Z</time>
      </trkpt>
      <trkpt lat="45.23042" lon="6.0264">
        <ele>2031.88</ele>
        <time>2013-07-13T09:32:29Z</time>
      </trkpt>
      <trkpt lat="45.23047" lon="6.02645">
        <ele>2032.84</ele>
        <time>2013-07-13T09:32:40Z</time>
      </trkpt>
      <trkpt lat="45.23052" lon="6.02649">
        <ele>2035.25</ele>
        <time>2013-07-13T09:32:50Z</time>
      </trkpt>
      <trkpt lat="45.23055" lon="6.02652">
        <ele>2036.69</ele>
        <time>2013-07-13T09:33:01Z</time>
      </trkpt>
      <trkpt lat="45.2306" lon="6.02652">
        <ele>2039.09</ele>
        <time>2013-07-13T09:33:12Z</time>
      </trkpt>
      <trkpt lat="45.23065" lon="6.02654">
        <ele>2041.02</ele>
        <time>2013-07-13T09:33:25Z</time>
      </trkpt>
      <trkpt lat="45.23067" lon="6.02657">
        <ele>2041.02</ele>
        <time>2013-07-13T09:33:33Z</time>
      </trkpt>
      <trkpt lat="45.23074" lon="6.02663">
        <ele>2041.5</ele>
        <time>2013-07-13T09:33:46Z</time>
      </trkpt>
      <trkpt lat="45.23079" lon="6.02678">
        <ele>2042.94</ele>
        <time>2013-07-13T09:33:59Z</time>
      </trkpt>
      <trkpt lat="45.23079" lon="6.02679">
        <ele>2042.94</ele>
        <time>2013-07-13T09:34:00Z</time>
      </trkpt>
      <trkpt lat="45.23082" lon="6.02693">
        <ele>2043.9</ele>
        <time>2013-07-13T09:34:15Z</time>
      </trkpt>
      <trkpt lat="45.23082" lon="6.02701">
        <ele>2044.38</ele>
        <time>2013-07-13T09:34:22Z</time>
      </trkpt>
      <trkpt lat="45.23078" lon="6.02717">
        <ele>2046.78</ele>
        <time>2013-07-13T09:34:37Z</time>
      </trkpt>
      <trkpt lat="45.23073" lon="6.02729">
        <ele>2047.75</ele>
        <time>2013-07-13T09:34:49Z</time>
      </trkpt>
      <trkpt lat="45.23068" lon="6.02741">
        <ele>2048.71</ele>
        <time>2013-07-13T09:35:03Z</time>
      </trkpt>
      <trkpt lat="45.23066" lon="6.0275">
        <ele>2051.11</ele>
        <time>2013-07-13T09:35:15Z</time>
      </trkpt>
      <trkpt lat="45.23068" lon="6.02749">
        <ele>2052.55</ele>
        <time>2013-07-13T09:35:28Z</time>
      </trkpt>
      <trkpt lat="45.23072" lon="6.02744">
        <ele>2053.51</ele>
        <time>2013-07-13T09:35:35Z</time>
      </trkpt>
      <trkpt lat="45.23074" lon="6.0274">
        <ele>2053.51</ele>
        <time>2013-07-13T09:35:39Z</time>
      </trkpt>
      <trkpt lat="45.23077" lon="6.0274">
        <ele>2053.51</ele>
        <time>2013-07-13T09:35:43Z</time>
      </trkpt>
      <trkpt lat="45.2308" lon="6.02736">
        <ele>2052.55</ele>
        <time>2013-07-13T09:35:48Z</time>
      </trkpt>
      <trkpt lat="45.23088" lon="6.02733">
        <ele>2053.03</ele>
        <time>2013-07-13T09:36:01Z</time>
      </trkpt>
      <trkpt lat="45.23093" lon="6.0273">
        <ele>2054.96</ele>
        <time>2013-07-13T09:36:11Z</time>
      </trkpt>
      <trkpt lat="45.23097" lon="6.02731">
        <ele>2057.36</ele>
        <time>2013-07-13T09:36:21Z</time>
      </trkpt>
      <trkpt lat="45.23095" lon="6.02738">
        <ele>2058.32</ele>
        <time>2013-07-13T09:36:34Z</time>
      </trkpt>
      <trkpt lat="45.23091" lon="6.02746">
        <ele>2059.28</ele>
        <time>2013-07-13T09:36:46Z</time>
      </trkpt>
      <trkpt lat="45.23088" lon="6.02756">
        <ele>2062.17</ele>
        <time>2013-07-13T09:36:58Z</time>
      </trkpt>
      <trkpt lat="45.23084" lon="6.02764">
        <ele>2063.61</ele>
        <time>2013-07-13T09:37:10Z</time>
      </trkpt>
      <trkpt lat="45.2308" lon="6.02772">
        <ele>2065.05</ele>
        <time>2013-07-13T09:37:19Z</time>
      </trkpt>
      <trkpt lat="45.2308" lon="6.02782">
        <ele>2065.53</ele>
        <time>2013-07-13T09:37:31Z</time>
      </trkpt>
      <trkpt lat="45.23074" lon="6.0279">
        <ele>2067.45</ele>
        <time>2013-07-13T09:37:43Z</time>
      </trkpt>
      <trkpt lat="45.23069" lon="6.02798">
        <ele>2067.93</ele>
        <time>2013-07-13T09:37:54Z</time>
      </trkpt>
      <trkpt lat="45.23064" lon="6.02804">
        <ele>2067.45</ele>
        <time>2013-07-13T09:38:05Z</time>
      </trkpt>
      <trkpt lat="45.23067" lon="6.02802">
        <ele>2069.86</ele>
        <time>2013-07-13T09:38:15Z</time>
      </trkpt>
      <trkpt lat="45.23067" lon="6.02806">
        <ele>2070.34</ele>
        <time>2013-07-13T09:38:25Z</time>
      </trkpt>
      <trkpt lat="45.23066" lon="6.02815">
        <ele>2071.3</ele>
        <time>2013-07-13T09:38:39Z</time>
      </trkpt>
      <trkpt lat="45.23062" lon="6.02823">
        <ele>2072.26</ele>
        <time>2013-07-13T09:38:49Z</time>
      </trkpt>
      <trkpt lat="45.23064" lon="6.02826">
        <ele>2074.18</ele>
        <time>2013-07-13T09:39:03Z</time>
      </trkpt>
      <trkpt lat="45.23066" lon="6.02824">
        <ele>2075.14</ele>
        <time>2013-07-13T09:39:07Z</time>
      </trkpt>
      <trkpt lat="45.23072" lon="6.02815">
        <ele>2078.51</ele>
        <time>2013-07-13T09:39:19Z</time>
      </trkpt>
      <trkpt lat="45.23072" lon="6.02821">
        <ele>2081.39</ele>
        <time>2013-07-13T09:39:30Z</time>
      </trkpt>
      <trkpt lat="45.23066" lon="6.02833">
        <ele>2083.79</ele>
        <time>2013-07-13T09:39:44Z</time>
      </trkpt>
      <trkpt lat="45.23062" lon="6.02842">
        <ele>2087.16</ele>
        <time>2013-07-13T09:39:56Z</time>
      </trkpt>
      <trkpt lat="45.23058" lon="6.02849">
        <ele>2088.6</ele>
        <time>2013-07-13T09:40:07Z</time>
      </trkpt>
      <trkpt lat="45.23055" lon="6.02861">
        <ele>2089.56</ele>
        <time>2013-07-13T09:40:19Z</time>
      </trkpt>
      <trkpt lat="45.23056" lon="6.0287">
        <ele>2090.04</ele>
        <time>2013-07-13T09:40:32Z</time>
      </trkpt>
      <trkpt lat="45.23061" lon="6.02876">
        <ele>2089.56</ele>
        <time>2013-07-13T09:40:43Z</time>
      </trkpt>
      <trkpt lat="45.23062" lon="6.02878">
        <ele>2090.04</ele>
        <time>2013-07-13T09:40:46Z</time>
      </trkpt>
      <trkpt lat="45.23068" lon="6.02885">
        <ele>2090.52</ele>
        <time>2013-07-13T09:40:53Z</time>
      </trkpt>
      <trkpt lat="45.23068" lon="6.02892">
        <ele>2090.04</ele>
        <time>2013-07-13T09:40:58Z</time>
      </trkpt>
      <trkpt lat="45.23069" lon="6.02904">
        <ele>2090.04</ele>
        <time>2013-07-13T09:41:10Z</time>
      </trkpt>
      <trkpt lat="45.2307" lon="6.02908">
        <ele>2090.04</ele>
        <time>2013-07-13T09:41:13Z</time>
      </trkpt>
      <trkpt lat="45.23073" lon="6.02912">
        <ele>2089.56</ele>
        <time>2013-07-13T09:41:23Z</time>
      </trkpt>
      <trkpt lat="45.23073" lon="6.02919">
        <ele>2090.04</ele>
        <time>2013-07-13T09:41:35Z</time>
      </trkpt>
      <trkpt lat="45.23073" lon="6.02921">
        <ele>2089.56</ele>
        <time>2013-07-13T09:41:37Z</time>
      </trkpt>
      <trkpt lat="45.23071" lon="6.02931">
        <ele>2089.56</ele>
        <time>2013-07-13T09:41:48Z</time>
      </trkpt>
      <trkpt lat="45.2307" lon="6.0293">
        <ele>2089.56</ele>
        <time>2013-07-13T09:42:07Z</time>
      </trkpt>
      <trkpt lat="45.2307" lon="6.0293">
        <ele>2088.6</ele>
        <time>2013-07-13T09:43:06Z</time>
      </trkpt>
      <trkpt lat="45.23071" lon="6.0293">
        <ele>2085.24</ele>
        <time>2013-07-13T10:14:53Z</time>
      </trkpt>
      <trkpt lat="45.2307" lon="6.02931">
        <ele>2085.24</ele>
        <time>2013-07-13T10:16:38Z</time>
      </trkpt>
      <trkpt lat="45.2307" lon="6.02931">
        <ele>2086.2</ele>
        <time>2013-07-13T10:19:47Z</time>
      </trkpt>
      <trkpt lat="45.2307" lon="6.0293">
        <ele>2085.24</ele>
        <time>2013-07-13T10:21:30Z</time>
      </trkpt>
      <trkpt lat="45.23072" lon="6.0293">
        <ele>2085.24</ele>
        <time>2013-07-13T10:24:03Z</time>
      </trkpt>
      <trkpt lat="45.2307" lon="6.02928">
        <ele>2084.76</ele>
        <time>2013-07-13T11:05:03Z</time>
      </trkpt>
      <trkpt lat="45.2307" lon="6.02928">
        <ele>2087.16</ele>
        <time>2013-07-13T11:13:52Z</time>
      </trkpt>
      <trkpt lat="45.2307" lon="6.02928">
        <ele>2087.16</ele>
        <time>2013-07-13T11:14:40Z</time>
      </trkpt>
      <trkpt lat="45.2307" lon="6.02929">
        <ele>2086.68</ele>
        <time>2013-07-13T11:16:07Z</time>
      </trkpt>
      <trkpt lat="45.2307" lon="6.02929">
        <ele>2086.68</ele>
        <time>2013-07-13T11:16:51Z</time>
      </trkpt>
      <trkpt lat="45.2307" lon="6.0293">
        <ele>2085.24</ele>
        <time>2013-07-13T11:17:59Z</time>
      </trkpt>
      <trkpt lat="45.2307" lon="6.02928">
        <ele>2087.16</ele>
        <time>2013-07-13T11:18:43Z</time>
      </trkpt>
      <trkpt lat="45.2307" lon="6.02927">
        <ele>2087.16</ele>
        <time>2013-07-13T11:19:27Z</time>
      </trkpt>
      <trkpt lat="45.23069" lon="6.02928">
        <ele>2087.16</ele>
        <time>2013-07-13T11:20:42Z</time>
      </trkpt>
      <trkpt lat="45.2307" lon="6.02929">
        <ele>2088.12</ele>
        <time>2013-07-13T11:21:08Z</time>
      </trkpt>
      <trkpt lat="45.2307" lon="6.02929">
        <ele>2088.12</ele>
        <time>2013-07-13T11:21:38Z</time>
      </trkpt>
      <trkpt lat="45.23069" lon="6.02923">
        <ele>2088.12</ele>
        <time>2013-07-13T11:21:57Z</time>
      </trkpt>
      <trkpt lat="45.23071" lon="6.02916">
        <ele>2087.16</ele>
        <time>2013-07-13T11:22:06Z</time>
      </trkpt>
      <trkpt lat="45.23068" lon="6.02905">
        <ele>2086.2</ele>
        <time>2013-07-13T11:22:15Z</time>
      </trkpt>
      <trkpt lat="45.23065" lon="6.02898">
        <ele>2086.2</ele>
        <time>2013-07-13T11:22:21Z</time>
      </trkpt>
      <trkpt lat="45.23066" lon="6.02889">
        <ele>2086.2</ele>
        <time>2013-07-13T11:22:32Z</time>
      </trkpt>
      <trkpt lat="45.23067" lon="6.0289">
        <ele>2086.2</ele>
        <time>2013-07-13T11:22:48Z</time>
      </trkpt>
      <trkpt lat="45.23067" lon="6.02887">
        <ele>2086.2</ele>
        <time>2013-07-13T11:22:50Z</time>
      </trkpt>
      <trkpt lat="45.23062" lon="6.02877">
        <ele>2084.76</ele>
        <time>2013-07-13T11:23:01Z</time>
      </trkpt>
      <trkpt lat="45.2306" lon="6.02875">
        <ele>2084.28</ele>
        <time>2013-07-13T11:23:04Z</time>
      </trkpt>
      <trkpt lat="45.23055" lon="6.02869">
        <ele>2084.28</ele>
        <time>2013-07-13T11:23:14Z</time>
      </trkpt>
      <trkpt lat="45.23057" lon="6.02849">
        <ele>2086.2</ele>
        <time>2013-07-13T11:23:29Z</time>
      </trkpt>
      <trkpt lat="45.23065" lon="6.02836">
        <ele>2085.72</ele>
        <time>2013-07-13T11:23:40Z</time>
      </trkpt>
      <trkpt lat="45.23073" lon="6.02817">
        <ele>2082.83</ele>
        <time>2013-07-13T11:23:53Z</time>
      </trkpt>
      <trkpt lat="45.23072" lon="6.02816">
        <ele>2080.91</ele>
        <time>2013-07-13T11:23:58Z</time>
      </trkpt>
      <trkpt lat="45.23067" lon="6.02819">
        <ele>2079.95</ele>
        <time>2013-07-13T11:24:02Z</time>
      </trkpt>
      <trkpt lat="45.23065" lon="6.02821">
        <ele>2079.47</ele>
        <time>2013-07-13T11:24:04Z</time>
      </trkpt>
      <trkpt lat="45.23061" lon="6.02824">
        <ele>2077.07</ele>
        <time>2013-07-13T11:24:14Z</time>
      </trkpt>
      <trkpt lat="45.23066" lon="6.0281">
        <ele>2075.14</ele>
        <time>2013-07-13T11:24:23Z</time>
      </trkpt>
      <trkpt lat="45.23065" lon="6.02802">
        <ele>2072.74</ele>
        <time>2013-07-13T11:24:34Z</time>
      </trkpt>
      <trkpt lat="45.23064" lon="6.028">
        <ele>2071.78</ele>
        <time>2013-07-13T11:24:39Z</time>
      </trkpt>
      <trkpt lat="45.23075" lon="6.02784">
        <ele>2068.89</ele>
        <time>2013-07-13T11:24:53Z</time>
      </trkpt>
      <trkpt lat="45.23079" lon="6.02778">
        <ele>2067.45</ele>
        <time>2013-07-13T11:24:57Z</time>
      </trkpt>
      <trkpt lat="45.23084" lon="6.02761">
        <ele>2064.57</ele>
        <time>2013-07-13T11:25:08Z</time>
      </trkpt>
      <trkpt lat="45.23091" lon="6.02739">
        <ele>2063.13</ele>
        <time>2013-07-13T11:25:23Z</time>
      </trkpt>
      <trkpt lat="45.23094" lon="6.02724">
        <ele>2060.24</ele>
        <time>2013-07-13T11:25:35Z</time>
      </trkpt>
      <trkpt lat="45.23093" lon="6.02725">
        <ele>2059.76</ele>
        <time>2013-07-13T11:25:36Z</time>
      </trkpt>
      <trkpt lat="45.23079" lon="6.02736">
        <ele>2053.99</ele>
        <time>2013-07-13T11:25:50Z</time>
      </trkpt>
      <trkpt lat="45.23076" lon="6.02741">
        <ele>2050.63</ele>
        <time>2013-07-13T11:25:55Z</time>
      </trkpt>
      <trkpt lat="45.23069" lon="6.02754">
        <ele>2042.94</ele>
        <time>2013-07-13T11:26:06Z</time>
      </trkpt>
      <trkpt lat="45.23068" lon="6.02755">
        <ele>2041.5</ele>
        <time>2013-07-13T11:26:08Z</time>
      </trkpt>
      <trkpt lat="45.23074" lon="6.02735">
        <ele>2040.05</ele>
        <time>2013-07-13T11:26:23Z</time>
      </trkpt>
      <trkpt lat="45.2308" lon="6.02705">
        <ele>2040.05</ele>
        <time>2013-07-13T11:26:38Z</time>
      </trkpt>
      <trkpt lat="45.23081" lon="6.02689">
        <ele>2039.09</ele>
        <time>2013-07-13T11:26:49Z</time>
      </trkpt>
      <trkpt lat="45.23078" lon="6.02685">
        <ele>2038.61</ele>
        <time>2013-07-13T11:26:53Z</time>
      </trkpt>
      <trkpt lat="45.23071" lon="6.02666">
        <ele>2037.65</ele>
        <time>2013-07-13T11:27:08Z</time>
      </trkpt>
      <trkpt lat="45.23068" lon="6.02661">
        <ele>2037.17</ele>
        <time>2013-07-13T11:27:13Z</time>
      </trkpt>
      <trkpt lat="45.23066" lon="6.02658">
        <ele>2037.17</ele>
        <time>2013-07-13T11:27:16Z</time>
      </trkpt>
      <trkpt lat="45.23063" lon="6.02656">
        <ele>2036.69</ele>
        <time>2013-07-13T11:27:19Z</time>
      </trkpt>
      <trkpt lat="45.23054" lon="6.02654">
        <ele>2034.29</ele>
        <time>2013-07-13T11:27:31Z</time>
      </trkpt>
      <trkpt lat="45.2305" lon="6.02654">
        <ele>2033.81</ele>
        <time>2013-07-13T11:27:34Z</time>
      </trkpt>
      <trkpt lat="45.23038" lon="6.0264">
        <ele>2030.44</ele>
        <time>2013-07-13T11:27:50Z</time>
      </trkpt>
      <trkpt lat="45.23038" lon="6.02635">
        <ele>2027.08</ele>
        <time>2013-07-13T11:27:56Z</time>
      </trkpt>
      <trkpt lat="45.23033" lon="6.02619">
        <ele>2022.27</ele>
        <time>2013-07-13T11:28:09Z</time>
      </trkpt>
      <trkpt lat="45.23028" lon="6.02613">
        <ele>2016.98</ele>
        <time>2013-07-13T11:28:20Z</time>
      </trkpt>
      <trkpt lat="45.23021" lon="6.02618">
        <ele>2013.14</ele>
        <time>2013-07-13T11:28:30Z</time>
      </trkpt>
      <trkpt lat="45.23017" lon="6.02625">
        <ele>2011.7</ele>
        <time>2013-07-13T11:28:35Z</time>
      </trkpt>
      <trkpt lat="45.23016" lon="6.02631">
        <ele>2008.33</ele>
        <time>2013-07-13T11:28:39Z</time>
      </trkpt>
      <trkpt lat="45.23016" lon="6.02636">
        <ele>2006.41</ele>
        <time>2013-07-13T11:28:43Z</time>
      </trkpt>
      <trkpt lat="45.23018" lon="6.02642">
        <ele>2005.45</ele>
        <time>2013-07-13T11:28:46Z</time>
      </trkpt>
      <trkpt lat="45.23019" lon="6.02649">
        <ele>2004.01</ele>
        <time>2013-07-13T11:28:50Z</time>
      </trkpt>
      <trkpt lat="45.23021" lon="6.02657">
        <ele>2002.08</ele>
        <time>2013-07-13T11:28:55Z</time>
      </trkpt>
      <trkpt lat="45.23023" lon="6.02675">
        <ele>2000.64</ele>
        <time>2013-07-13T11:29:08Z</time>
      </trkpt>
      <trkpt lat="45.23024" lon="6.02691">
        <ele>2000.16</ele>
        <time>2013-07-13T11:29:21Z</time>
      </trkpt>
      <trkpt lat="45.23021" lon="6.02698">
        <ele>1999.68</ele>
        <time>2013-07-13T11:29:26Z</time>
      </trkpt>
      <trkpt lat="45.23016" lon="6.02698">
        <ele>1999.2</ele>
        <time>2013-07-13T11:29:30Z</time>
      </trkpt>
      <trkpt lat="45.23006" lon="6.02709">
        <ele>1993.43</ele>
        <time>2013-07-13T11:29:44Z</time>
      </trkpt>
      <trkpt lat="45.23" lon="6.02715">
        <ele>1987.18</ele>
        <time>2013-07-13T11:29:56Z</time>
      </trkpt>
      <trkpt lat="45.22994" lon="6.02719">
        <ele>1981.9</ele>
        <time>2013-07-13T11:30:09Z</time>
      </trkpt>
      <trkpt lat="45.22988" lon="6.02722">
        <ele>1977.57</ele>
        <time>2013-07-13T11:30:21Z</time>
      </trkpt>
      <trkpt lat="45.22987" lon="6.02724">
        <ele>1977.09</ele>
        <time>2013-07-13T11:30:23Z</time>
      </trkpt>
      <trkpt lat="45.22979" lon="6.02728">
        <ele>1972.76</ele>
        <time>2013-07-13T11:30:35Z</time>
      </trkpt>
      <trkpt lat="45.22973" lon="6.02731">
        <ele>1968.92</ele>
        <time>2013-07-13T11:30:46Z</time>
      </trkpt>
      <trkpt lat="45.2296" lon="6.02734">
        <ele>1969.88</ele>
        <time>2013-07-13T11:30:57Z</time>
      </trkpt>
      <trkpt lat="45.22958" lon="6.02734">
        <ele>1969.4</ele>
        <time>2013-07-13T11:31:00Z</time>
      </trkpt>
      <trkpt lat="45.22953" lon="6.02735">
        <ele>1967.96</ele>
        <time>2013-07-13T11:31:05Z</time>
      </trkpt>
      <trkpt lat="45.22944" lon="6.02738">
        <ele>1964.11</ele>
        <time>2013-07-13T11:31:17Z</time>
      </trkpt>
      <trkpt lat="45.22942" lon="6.02738">
        <ele>1962.67</ele>
        <time>2013-07-13T11:31:22Z</time>
      </trkpt>
      <trkpt lat="45.2293" lon="6.02735">
        <ele>1957.86</ele>
        <time>2013-07-13T11:31:34Z</time>
      </trkpt>
      <trkpt lat="45.22927" lon="6.02731">
        <ele>1954.02</ele>
        <time>2013-07-13T11:31:48Z</time>
      </trkpt>
      <trkpt lat="45.22916" lon="6.02733">
        <ele>1945.85</ele>
        <time>2013-07-13T11:31:59Z</time>
      </trkpt>
      <trkpt lat="45.22911" lon="6.02736">
        <ele>1943.44</ele>
        <time>2013-07-13T11:32:05Z</time>
      </trkpt>
      <trkpt lat="45.22896" lon="6.02735">
        <ele>1943.92</ele>
        <time>2013-07-13T11:32:18Z</time>
      </trkpt>
      <trkpt lat="45.22886" lon="6.02736">
        <ele>1942.48</ele>
        <time>2013-07-13T11:32:29Z</time>
      </trkpt>
      <trkpt lat="45.22883" lon="6.02738">
        <ele>1942</ele>
        <time>2013-07-13T11:32:32Z</time>
      </trkpt>
      <trkpt lat="45.2287" lon="6.0274">
        <ele>1939.12</ele>
        <time>2013-07-13T11:32:45Z</time>
      </trkpt>
      <trkpt lat="45.22865" lon="6.0274">
        <ele>1938.16</ele>
        <time>2013-07-13T11:32:51Z</time>
      </trkpt>
      <trkpt lat="45.22854" lon="6.02745">
        <ele>1935.75</ele>
        <time>2013-07-13T11:33:04Z</time>
      </trkpt>
      <trkpt lat="45.22853" lon="6.02732">
        <ele>1937.67</ele>
        <time>2013-07-13T11:33:19Z</time>
      </trkpt>
      <trkpt lat="45.22853" lon="6.02719">
        <ele>1936.71</ele>
        <time>2013-07-13T11:33:30Z</time>
      </trkpt>
      <trkpt lat="45.22854" lon="6.02713">
        <ele>1935.75</ele>
        <time>2013-07-13T11:33:36Z</time>
      </trkpt>
      <trkpt lat="45.22858" lon="6.02701">
        <ele>1931.91</ele>
        <time>2013-07-13T11:33:49Z</time>
      </trkpt>
      <trkpt lat="45.22853" lon="6.02706">
        <ele>1929.98</ele>
        <time>2013-07-13T11:33:58Z</time>
      </trkpt>
      <trkpt lat="45.22848" lon="6.02706">
        <ele>1927.58</ele>
        <time>2013-07-13T11:34:08Z</time>
      </trkpt>
      <trkpt lat="45.22849" lon="6.02689">
        <ele>1925.18</ele>
        <time>2013-07-13T11:34:21Z</time>
      </trkpt>
      <trkpt lat="45.2285" lon="6.02671">
        <ele>1922.77</ele>
        <time>2013-07-13T11:34:36Z</time>
      </trkpt>
      <trkpt lat="45.2285" lon="6.02664">
        <ele>1920.85</ele>
        <time>2013-07-13T11:34:49Z</time>
      </trkpt>
      <trkpt lat="45.2285" lon="6.02655">
        <ele>1919.89</ele>
        <time>2013-07-13T11:34:59Z</time>
      </trkpt>
      <trkpt lat="45.2285" lon="6.0265">
        <ele>1919.41</ele>
        <time>2013-07-13T11:35:02Z</time>
      </trkpt>
      <trkpt lat="45.22848" lon="6.02632">
        <ele>1917.97</ele>
        <time>2013-07-13T11:35:15Z</time>
      </trkpt>
      <trkpt lat="45.22848" lon="6.02631">
        <ele>1917.97</ele>
        <time>2013-07-13T11:35:16Z</time>
      </trkpt>
      <trkpt lat="45.22838" lon="6.02627">
        <ele>1913.64</ele>
        <time>2013-07-13T11:35:29Z</time>
      </trkpt>
      <trkpt lat="45.22836" lon="6.02624">
        <ele>1911.72</ele>
        <time>2013-07-13T11:35:33Z</time>
      </trkpt>
      <trkpt lat="45.2283" lon="6.02614">
        <ele>1909.8</ele>
        <time>2013-07-13T11:35:46Z</time>
      </trkpt>
      <trkpt lat="45.22827" lon="6.02607">
        <ele>1907.87</ele>
        <time>2013-07-13T11:35:51Z</time>
      </trkpt>
      <trkpt lat="45.22817" lon="6.0259">
        <ele>1902.11</ele>
        <time>2013-07-13T11:36:06Z</time>
      </trkpt>
      <trkpt lat="45.22812" lon="6.02581">
        <ele>1901.14</ele>
        <time>2013-07-13T11:36:17Z</time>
      </trkpt>
      <trkpt lat="45.22806" lon="6.02568">
        <ele>1900.18</ele>
        <time>2013-07-13T11:36:28Z</time>
      </trkpt>
      <trkpt lat="45.22805" lon="6.02566">
        <ele>1900.18</ele>
        <time>2013-07-13T11:36:30Z</time>
      </trkpt>
      <trkpt lat="45.22802" lon="6.02564">
        <ele>1899.7</ele>
        <time>2013-07-13T11:36:33Z</time>
      </trkpt>
      <trkpt lat="45.22801" lon="6.0256">
        <ele>1899.7</ele>
        <time>2013-07-13T11:36:36Z</time>
      </trkpt>
      <trkpt lat="45.22795" lon="6.02554">
        <ele>1900.66</ele>
        <time>2013-07-13T11:36:45Z</time>
      </trkpt>
      <trkpt lat="45.22791" lon="6.02548">
        <ele>1900.66</ele>
        <time>2013-07-13T11:36:51Z</time>
      </trkpt>
      <trkpt lat="45.22785" lon="6.02542">
        <ele>1901.14</ele>
        <time>2013-07-13T11:36:57Z</time>
      </trkpt>
      <trkpt lat="45.22776" lon="6.02537">
        <ele>1901.63</ele>
        <time>2013-07-13T11:37:04Z</time>
      </trkpt>
      <trkpt lat="45.22769" lon="6.02532">
        <ele>1901.63</ele>
        <time>2013-07-13T11:37:11Z</time>
      </trkpt>
      <trkpt lat="45.22756" lon="6.02515">
        <ele>1900.66</ele>
        <time>2013-07-13T11:37:26Z</time>
      </trkpt>
      <trkpt lat="45.22746" lon="6.02509">
        <ele>1898.26</ele>
        <time>2013-07-13T11:37:39Z</time>
      </trkpt>
      <trkpt lat="45.22745" lon="6.02508">
        <ele>1897.3</ele>
        <time>2013-07-13T11:37:42Z</time>
      </trkpt>
      <trkpt lat="45.22743" lon="6.02509">
        <ele>1897.3</ele>
        <time>2013-07-13T11:37:44Z</time>
      </trkpt>
      <trkpt lat="45.22737" lon="6.02507">
        <ele>1896.34</ele>
        <time>2013-07-13T11:37:57Z</time>
      </trkpt>
      <trkpt lat="45.22731" lon="6.02508">
        <ele>1896.34</ele>
        <time>2013-07-13T11:38:04Z</time>
      </trkpt>
      <trkpt lat="45.22728" lon="6.02509">
        <ele>1896.34</ele>
        <time>2013-07-13T11:38:07Z</time>
      </trkpt>
      <trkpt lat="45.22726" lon="6.02506">
        <ele>1895.86</ele>
        <time>2013-07-13T11:38:10Z</time>
      </trkpt>
      <trkpt lat="45.22714" lon="6.02505">
        <ele>1895.38</ele>
        <time>2013-07-13T11:38:21Z</time>
      </trkpt>
      <trkpt lat="45.22711" lon="6.02503">
        <ele>1895.38</ele>
        <time>2013-07-13T11:38:23Z</time>
      </trkpt>
      <trkpt lat="45.22706" lon="6.02503">
        <ele>1894.42</ele>
        <time>2013-07-13T11:38:28Z</time>
      </trkpt>
      <trkpt lat="45.22704" lon="6.02502">
        <ele>1893.93</ele>
        <time>2013-07-13T11:38:30Z</time>
      </trkpt>
      <trkpt lat="45.22698" lon="6.02503">
        <ele>1892.97</ele>
        <time>2013-07-13T11:38:36Z</time>
      </trkpt>
      <trkpt lat="45.22691" lon="6.02508">
        <ele>1892.97</ele>
        <time>2013-07-13T11:38:43Z</time>
      </trkpt>
      <trkpt lat="45.22688" lon="6.02506">
        <ele>1892.01</ele>
        <time>2013-07-13T11:38:47Z</time>
      </trkpt>
      <trkpt lat="45.22686" lon="6.02504">
        <ele>1892.01</ele>
        <time>2013-07-13T11:38:50Z</time>
      </trkpt>
      <trkpt lat="45.22678" lon="6.02511">
        <ele>1891.05</ele>
        <time>2013-07-13T11:39:01Z</time>
      </trkpt>
      <trkpt lat="45.22675" lon="6.02512">
        <ele>1890.57</ele>
        <time>2013-07-13T11:39:06Z</time>
      </trkpt>
      <trkpt lat="45.22664" lon="6.02507">
        <ele>1889.61</ele>
        <time>2013-07-13T11:39:20Z</time>
      </trkpt>
      <trkpt lat="45.22658" lon="6.02508">
        <ele>1888.65</ele>
        <time>2013-07-13T11:39:30Z</time>
      </trkpt>
      <trkpt lat="45.22654" lon="6.02507">
        <ele>1886.24</ele>
        <time>2013-07-13T11:39:38Z</time>
      </trkpt>
      <trkpt lat="45.22651" lon="6.02509">
        <ele>1886.24</ele>
        <time>2013-07-13T11:39:41Z</time>
      </trkpt>
      <trkpt lat="45.22641" lon="6.02512">
        <ele>1884.32</ele>
        <time>2013-07-13T11:39:56Z</time>
      </trkpt>
      <trkpt lat="45.22638" lon="6.02514">
        <ele>1884.32</ele>
        <time>2013-07-13T11:40:00Z</time>
      </trkpt>
      <trkpt lat="45.22631" lon="6.02513">
        <ele>1883.36</ele>
        <time>2013-07-13T11:40:05Z</time>
      </trkpt>
      <trkpt lat="45.22621" lon="6.02511">
        <ele>1881.44</ele>
        <time>2013-07-13T11:40:17Z</time>
      </trkpt>
      <trkpt lat="45.2262" lon="6.02511">
        <ele>1881.44</ele>
        <time>2013-07-13T11:40:18Z</time>
      </trkpt>
      <trkpt lat="45.22614" lon="6.02506">
        <ele>1879.51</ele>
        <time>2013-07-13T11:40:25Z</time>
      </trkpt>
      <trkpt lat="45.22618" lon="6.02498">
        <ele>1870.86</ele>
        <time>2013-07-13T11:40:37Z</time>
      </trkpt>
      <trkpt lat="45.22611" lon="6.02499">
        <ele>1864.61</ele>
        <time>2013-07-13T11:40:51Z</time>
      </trkpt>
      <trkpt lat="45.22605" lon="6.02492">
        <ele>1859.33</ele>
        <time>2013-07-13T11:41:02Z</time>
      </trkpt>
      <trkpt lat="45.22595" lon="6.02499">
        <ele>1854.52</ele>
        <time>2013-07-13T11:41:15Z</time>
      </trkpt>
      <trkpt lat="45.22585" lon="6.02501">
        <ele>1850.68</ele>
        <time>2013-07-13T11:41:25Z</time>
      </trkpt>
      <trkpt lat="45.22571" lon="6.02499">
        <ele>1846.35</ele>
        <time>2013-07-13T11:41:37Z</time>
      </trkpt>
      <trkpt lat="45.22563" lon="6.02497">
        <ele>1843.95</ele>
        <time>2013-07-13T11:41:45Z</time>
      </trkpt>
      <trkpt lat="45.2256" lon="6.02496">
        <ele>1843.95</ele>
        <time>2013-07-13T11:41:47Z</time>
      </trkpt>
      <trkpt lat="45.22553" lon="6.02486">
        <ele>1841.54</ele>
        <time>2013-07-13T11:41:56Z</time>
      </trkpt>
      <trkpt lat="45.22545" lon="6.02482">
        <ele>1837.22</ele>
        <time>2013-07-13T11:42:06Z</time>
      </trkpt>
      <trkpt lat="45.22539" lon="6.02477">
        <ele>1832.89</ele>
        <time>2013-07-13T11:42:17Z</time>
      </trkpt>
      <trkpt lat="45.22535" lon="6.02475">
        <ele>1830.97</ele>
        <time>2013-07-13T11:42:25Z</time>
      </trkpt>
      <trkpt lat="45.22533" lon="6.02467">
        <ele>1832.89</ele>
        <time>2013-07-13T11:42:37Z</time>
      </trkpt>
      <trkpt lat="45.22527" lon="6.02462">
        <ele>1832.41</ele>
        <time>2013-07-13T11:42:45Z</time>
      </trkpt>
      <trkpt lat="45.22521" lon="6.02457">
        <ele>1831.93</ele>
        <time>2013-07-13T11:42:51Z</time>
      </trkpt>
      <trkpt lat="45.22511" lon="6.0245">
        <ele>1830.97</ele>
        <time>2013-07-13T11:43:03Z</time>
      </trkpt>
      <trkpt lat="45.22504" lon="6.02444">
        <ele>1829.53</ele>
        <time>2013-07-13T11:43:18Z</time>
      </trkpt>
      <trkpt lat="45.22496" lon="6.02442">
        <ele>1828.56</ele>
        <time>2013-07-13T11:43:29Z</time>
      </trkpt>
      <trkpt lat="45.2249" lon="6.02434">
        <ele>1827.12</ele>
        <time>2013-07-13T11:43:39Z</time>
      </trkpt>
      <trkpt lat="45.22486" lon="6.0243">
        <ele>1826.16</ele>
        <time>2013-07-13T11:43:46Z</time>
      </trkpt>
      <trkpt lat="45.2248" lon="6.02428">
        <ele>1823.76</ele>
        <time>2013-07-13T11:43:58Z</time>
      </trkpt>
      <trkpt lat="45.2248" lon="6.02425">
        <ele>1822.32</ele>
        <time>2013-07-13T11:44:03Z</time>
      </trkpt>
      <trkpt lat="45.22478" lon="6.02419">
        <ele>1819.43</ele>
        <time>2013-07-13T11:44:08Z</time>
      </trkpt>
      <trkpt lat="45.22475" lon="6.02403">
        <ele>1816.07</ele>
        <time>2013-07-13T11:44:19Z</time>
      </trkpt>
      <trkpt lat="45.22472" lon="6.02404">
        <ele>1813.18</ele>
        <time>2013-07-13T11:44:32Z</time>
      </trkpt>
      <trkpt lat="45.22472" lon="6.02407">
        <ele>1812.7</ele>
        <time>2013-07-13T11:44:34Z</time>
      </trkpt>
      <trkpt lat="45.2247" lon="6.02412">
        <ele>1809.34</ele>
        <time>2013-07-13T11:44:49Z</time>
      </trkpt>
      <trkpt lat="45.22463" lon="6.02404">
        <ele>1805.49</ele>
        <time>2013-07-13T11:45:02Z</time>
      </trkpt>
      <trkpt lat="45.22457" lon="6.02394">
        <ele>1801.65</ele>
        <time>2013-07-13T11:45:14Z</time>
      </trkpt>
      <trkpt lat="45.22456" lon="6.02393">
        <ele>1801.17</ele>
        <time>2013-07-13T11:45:16Z</time>
      </trkpt>
      <trkpt lat="45.22455" lon="6.02396">
        <ele>1797.32</ele>
        <time>2013-07-13T11:45:28Z</time>
      </trkpt>
      <trkpt lat="45.22449" lon="6.02396">
        <ele>1793.48</ele>
        <time>2013-07-13T11:45:40Z</time>
      </trkpt>
      <trkpt lat="45.22443" lon="6.0239">
        <ele>1790.11</ele>
        <time>2013-07-13T11:45:52Z</time>
      </trkpt>
      <trkpt lat="45.22437" lon="6.02384">
        <ele>1787.23</ele>
        <time>2013-07-13T11:46:03Z</time>
      </trkpt>
      <trkpt lat="45.22434" lon="6.02377">
        <ele>1786.27</ele>
        <time>2013-07-13T11:46:08Z</time>
      </trkpt>
      <trkpt lat="45.22432" lon="6.0237">
        <ele>1787.23</ele>
        <time>2013-07-13T11:46:13Z</time>
      </trkpt>
      <trkpt lat="45.22428" lon="6.02363">
        <ele>1786.75</ele>
        <time>2013-07-13T11:46:19Z</time>
      </trkpt>
      <trkpt lat="45.22424" lon="6.02349">
        <ele>1785.79</ele>
        <time>2013-07-13T11:46:31Z</time>
      </trkpt>
      <trkpt lat="45.22418" lon="6.02334">
        <ele>1783.86</ele>
        <time>2013-07-13T11:46:44Z</time>
      </trkpt>
      <trkpt lat="45.22416" lon="6.0233">
        <ele>1782.42</ele>
        <time>2013-07-13T11:46:56Z</time>
      </trkpt>
      <trkpt lat="45.22412" lon="6.02322">
        <ele>1780.5</ele>
        <time>2013-07-13T11:47:08Z</time>
      </trkpt>
      <trkpt lat="45.2241" lon="6.02317">
        <ele>1778.58</ele>
        <time>2013-07-13T11:47:15Z</time>
      </trkpt>
      <trkpt lat="45.22407" lon="6.02303">
        <ele>1776.17</ele>
        <time>2013-07-13T11:47:27Z</time>
      </trkpt>
      <trkpt lat="45.22402" lon="6.02291">
        <ele>1778.1</ele>
        <time>2013-07-13T11:47:41Z</time>
      </trkpt>
      <trkpt lat="45.22399" lon="6.02283">
        <ele>1776.65</ele>
        <time>2013-07-13T11:47:54Z</time>
      </trkpt>
      <trkpt lat="45.22397" lon="6.02268">
        <ele>1774.25</ele>
        <time>2013-07-13T11:48:09Z</time>
      </trkpt>
      <trkpt lat="45.22395" lon="6.02256">
        <ele>1772.81</ele>
        <time>2013-07-13T11:48:23Z</time>
      </trkpt>
      <trkpt lat="45.22392" lon="6.02247">
        <ele>1771.37</ele>
        <time>2013-07-13T11:48:36Z</time>
      </trkpt>
      <trkpt lat="45.22388" lon="6.02232">
        <ele>1770.89</ele>
        <time>2013-07-13T11:48:49Z</time>
      </trkpt>
      <trkpt lat="45.22388" lon="6.02223">
        <ele>1768.96</ele>
        <time>2013-07-13T11:48:56Z</time>
      </trkpt>
      <trkpt lat="45.22386" lon="6.02214">
        <ele>1768</ele>
        <time>2013-07-13T11:49:06Z</time>
      </trkpt>
      <trkpt lat="45.22383" lon="6.022">
        <ele>1766.56</ele>
        <time>2013-07-13T11:49:17Z</time>
      </trkpt>
      <trkpt lat="45.22381" lon="6.02179">
        <ele>1763.68</ele>
        <time>2013-07-13T11:49:31Z</time>
      </trkpt>
      <trkpt lat="45.22382" lon="6.02168">
        <ele>1759.35</ele>
        <time>2013-07-13T11:49:43Z</time>
      </trkpt>
      <trkpt lat="45.22383" lon="6.02157">
        <ele>1755.02</ele>
        <time>2013-07-13T11:49:56Z</time>
      </trkpt>
      <trkpt lat="45.22385" lon="6.02149">
        <ele>1751.18</ele>
        <time>2013-07-13T11:50:09Z</time>
      </trkpt>
      <trkpt lat="45.2238" lon="6.02138">
        <ele>1747.81</ele>
        <time>2013-07-13T11:50:21Z</time>
      </trkpt>
      <trkpt lat="45.2238" lon="6.02138">
        <ele>1747.33</ele>
        <time>2013-07-13T11:50:22Z</time>
      </trkpt>
      <trkpt lat="45.22379" lon="6.02134">
        <ele>1745.89</ele>
        <time>2013-07-13T11:50:25Z</time>
      </trkpt>
      <trkpt lat="45.22376" lon="6.02127">
        <ele>1743.97</ele>
        <time>2013-07-13T11:50:33Z</time>
      </trkpt>
      <trkpt lat="45.2237" lon="6.02114">
        <ele>1743.97</ele>
        <time>2013-07-13T11:50:47Z</time>
      </trkpt>
      <trkpt lat="45.22361" lon="6.02099">
        <ele>1743.01</ele>
        <time>2013-07-13T11:51:02Z</time>
      </trkpt>
      <trkpt lat="45.22354" lon="6.02093">
        <ele>1742.05</ele>
        <time>2013-07-13T11:51:14Z</time>
      </trkpt>
      <trkpt lat="45.22352" lon="6.02094">
        <ele>1741.08</ele>
        <time>2013-07-13T11:51:19Z</time>
      </trkpt>
      <trkpt lat="45.22349" lon="6.02099">
        <ele>1740.6</ele>
        <time>2013-07-13T11:51:25Z</time>
      </trkpt>
      <trkpt lat="45.22342" lon="6.02116">
        <ele>1739.64</ele>
        <time>2013-07-13T11:51:39Z</time>
      </trkpt>
      <trkpt lat="45.22339" lon="6.02124">
        <ele>1739.16</ele>
        <time>2013-07-13T11:51:48Z</time>
      </trkpt>
      <trkpt lat="45.22333" lon="6.02139">
        <ele>1738.2</ele>
        <time>2013-07-13T11:52:02Z</time>
      </trkpt>
      <trkpt lat="45.22333" lon="6.0214">
        <ele>1738.2</ele>
        <time>2013-07-13T11:52:03Z</time>
      </trkpt>
      <trkpt lat="45.22329" lon="6.02148">
        <ele>1737.24</ele>
        <time>2013-07-13T11:52:14Z</time>
      </trkpt>
      <trkpt lat="45.22322" lon="6.02163">
        <ele>1736.28</ele>
        <time>2013-07-13T11:52:29Z</time>
      </trkpt>
      <trkpt lat="45.2232" lon="6.02165">
        <ele>1736.28</ele>
        <time>2013-07-13T11:52:33Z</time>
      </trkpt>
      <trkpt lat="45.22314" lon="6.02168">
        <ele>1735.8</ele>
        <time>2013-07-13T11:52:45Z</time>
      </trkpt>
      <trkpt lat="45.22308" lon="6.02166">
        <ele>1735.32</ele>
        <time>2013-07-13T11:52:53Z</time>
      </trkpt>
      <trkpt lat="45.22297" lon="6.02167">
        <ele>1734.84</ele>
        <time>2013-07-13T11:53:06Z</time>
      </trkpt>
      <trkpt lat="45.22285" lon="6.02171">
        <ele>1733.88</ele>
        <time>2013-07-13T11:53:19Z</time>
      </trkpt>
      <trkpt lat="45.22273" lon="6.02169">
        <ele>1732.91</ele>
        <time>2013-07-13T11:53:31Z</time>
      </trkpt>
      <trkpt lat="45.22272" lon="6.02169">
        <ele>1732.91</ele>
        <time>2013-07-13T11:53:32Z</time>
      </trkpt>
      <trkpt lat="45.22253" lon="6.02169">
        <ele>1731.47</ele>
        <time>2013-07-13T11:53:48Z</time>
      </trkpt>
      <trkpt lat="45.22243" lon="6.0216">
        <ele>1731.95</ele>
        <time>2013-07-13T11:54:03Z</time>
      </trkpt>
      <trkpt lat="45.22244" lon="6.0216">
        <ele>1730.99</ele>
        <time>2013-07-13T11:54:31Z</time>
      </trkpt>
      <trkpt lat="45.22245" lon="6.02161">
        <ele>1730.03</ele>
        <time>2013-07-13T11:55:01Z</time>
      </trkpt>
      <trkpt lat="45.22238" lon="6.02163">
        <ele>1729.55</ele>
        <time>2013-07-13T11:55:44Z</time>
      </trkpt>
      <trkpt lat="45.22236" lon="6.02171">
        <ele>1729.07</ele>
        <time>2013-07-13T11:55:55Z</time>
      </trkpt>
      <trkpt lat="45.22232" lon="6.02177">
        <ele>1729.55</ele>
        <time>2013-07-13T11:56:07Z</time>
      </trkpt>
      <trkpt lat="45.22229" lon="6.02188">
        <ele>1730.51</ele>
        <time>2013-07-13T11:56:20Z</time>
      </trkpt>
      <trkpt lat="45.22228" lon="6.02197">
        <ele>1730.03</ele>
        <time>2013-07-13T11:56:31Z</time>
      </trkpt>
      <trkpt lat="45.22229" lon="6.02211">
        <ele>1728.11</ele>
        <time>2013-07-13T11:56:44Z</time>
      </trkpt>
      <trkpt lat="45.22226" lon="6.02219">
        <ele>1727.63</ele>
        <time>2013-07-13T11:56:57Z</time>
      </trkpt>
      <trkpt lat="45.22219" lon="6.02214">
        <ele>1729.07</ele>
        <time>2013-07-13T11:57:09Z</time>
      </trkpt>
      <trkpt lat="45.22219" lon="6.02215">
        <ele>1729.07</ele>
        <time>2013-07-13T11:57:33Z</time>
      </trkpt>
      <trkpt lat="45.22219" lon="6.02217">
        <ele>1725.22</ele>
        <time>2013-07-13T12:00:03Z</time>
      </trkpt>
      <trkpt lat="45.22217" lon="6.02213">
        <ele>1726.18</ele>
        <time>2013-07-13T12:07:21Z</time>
      </trkpt>
      <trkpt lat="45.22218" lon="6.02214">
        <ele>1733.39</ele>
        <time>2013-07-13T12:29:44Z</time>
      </trkpt>
      <trkpt lat="45.22218" lon="6.02214">
        <ele>1732.91</ele>
        <time>2013-07-13T12:29:54Z</time>
      </trkpt>
      <trkpt lat="45.22216" lon="6.02209">
        <ele>1731.95</ele>
        <time>2013-07-13T12:30:14Z</time>
      </trkpt>
      <trkpt lat="45.22215" lon="6.02208">
        <ele>1731.47</ele>
        <time>2013-07-13T12:30:32Z</time>
      </trkpt>
      <trkpt lat="45.22217" lon="6.02208">
        <ele>1732.43</ele>
        <time>2013-07-13T12:30:45Z</time>
      </trkpt>
      <trkpt lat="45.2222" lon="6.02205">
        <ele>1732.43</ele>
        <time>2013-07-13T12:31:00Z</time>
      </trkpt>
      <trkpt lat="45.22223" lon="6.02197">
        <ele>1734.36</ele>
        <time>2013-07-13T12:31:13Z</time>
      </trkpt>
      <trkpt lat="45.22225" lon="6.02189">
        <ele>1735.32</ele>
        <time>2013-07-13T12:31:24Z</time>
      </trkpt>
      <trkpt lat="45.22226" lon="6.02185">
        <ele>1735.8</ele>
        <time>2013-07-13T12:31:29Z</time>
      </trkpt>
      <trkpt lat="45.22229" lon="6.02175">
        <ele>1737.72</ele>
        <time>2013-07-13T12:31:42Z</time>
      </trkpt>
      <trkpt lat="45.22229" lon="6.02173">
        <ele>1737.72</ele>
        <time>2013-07-13T12:31:44Z</time>
      </trkpt>
      <trkpt lat="45.22232" lon="6.02169">
        <ele>1736.76</ele>
        <time>2013-07-13T12:31:48Z</time>
      </trkpt>
      <trkpt lat="45.22234" lon="6.02167">
        <ele>1736.28</ele>
        <time>2013-07-13T12:31:50Z</time>
      </trkpt>
      <trkpt lat="45.22242" lon="6.02154">
        <ele>1737.24</ele>
        <time>2013-07-13T12:32:02Z</time>
      </trkpt>
      <trkpt lat="45.22247" lon="6.02143">
        <ele>1735.32</ele>
        <time>2013-07-13T12:32:14Z</time>
      </trkpt>
      <trkpt lat="45.22247" lon="6.02141">
        <ele>1734.36</ele>
        <time>2013-07-13T12:32:16Z</time>
      </trkpt>
      <trkpt lat="45.22247" lon="6.02125">
        <ele>1730.03</ele>
        <time>2013-07-13T12:32:30Z</time>
      </trkpt>
      <trkpt lat="45.22247" lon="6.02115">
        <ele>1727.63</ele>
        <time>2013-07-13T12:32:44Z</time>
      </trkpt>
      <trkpt lat="45.22248" lon="6.02113">
        <ele>1727.63</ele>
        <time>2013-07-13T12:33:05Z</time>
      </trkpt>
      <trkpt lat="45.22248" lon="6.02113">
        <ele>1728.11</ele>
        <time>2013-07-13T12:33:29Z</time>
      </trkpt>
      <trkpt lat="45.22248" lon="6.02112">
        <ele>1725.7</ele>
        <time>2013-07-13T12:33:55Z</time>
      </trkpt>
      <trkpt lat="45.22248" lon="6.02108">
        <ele>1724.74</ele>
        <time>2013-07-13T12:34:11Z</time>
      </trkpt>
      <trkpt lat="45.22248" lon="6.021">
        <ele>1724.26</ele>
        <time>2013-07-13T12:34:27Z</time>
      </trkpt>
      <trkpt lat="45.22247" lon="6.02082">
        <ele>1723.3</ele>
        <time>2013-07-13T12:34:40Z</time>
      </trkpt>
      <trkpt lat="45.22247" lon="6.02066">
        <ele>1719.94</ele>
        <time>2013-07-13T12:34:54Z</time>
      </trkpt>
      <trkpt lat="45.22248" lon="6.0205">
        <ele>1716.09</ele>
        <time>2013-07-13T12:35:07Z</time>
      </trkpt>
      <trkpt lat="45.22248" lon="6.02034">
        <ele>1712.73</ele>
        <time>2013-07-13T12:35:20Z</time>
      </trkpt>
      <trkpt lat="45.22247" lon="6.02023">
        <ele>1710.32</ele>
        <time>2013-07-13T12:35:27Z</time>
      </trkpt>
      <trkpt lat="45.2225" lon="6.02003">
        <ele>1704.55</ele>
        <time>2013-07-13T12:35:42Z</time>
      </trkpt>
      <trkpt lat="45.22247" lon="6.01993">
        <ele>1702.63</ele>
        <time>2013-07-13T12:35:55Z</time>
      </trkpt>
      <trkpt lat="45.22247" lon="6.01992">
        <ele>1702.63</ele>
        <time>2013-07-13T12:35:56Z</time>
      </trkpt>
      <trkpt lat="45.22246" lon="6.01982">
        <ele>1702.63</ele>
        <time>2013-07-13T12:36:02Z</time>
      </trkpt>
      <trkpt lat="45.22243" lon="6.01969">
        <ele>1701.67</ele>
        <time>2013-07-13T12:36:11Z</time>
      </trkpt>
      <trkpt lat="45.22243" lon="6.01966">
        <ele>1701.19</ele>
        <time>2013-07-13T12:36:13Z</time>
      </trkpt>
      <trkpt lat="45.22244" lon="6.01947">
        <ele>1700.71</ele>
        <time>2013-07-13T12:36:25Z</time>
      </trkpt>
      <trkpt lat="45.22246" lon="6.01938">
        <ele>1700.23</ele>
        <time>2013-07-13T12:36:33Z</time>
      </trkpt>
      <trkpt lat="45.22248" lon="6.01922">
        <ele>1699.27</ele>
        <time>2013-07-13T12:36:47Z</time>
      </trkpt>
      <trkpt lat="45.22248" lon="6.01921">
        <ele>1699.27</ele>
        <time>2013-07-13T12:36:48Z</time>
      </trkpt>
      <trkpt lat="45.22248" lon="6.01915">
        <ele>1699.27</ele>
        <time>2013-07-13T12:36:51Z</time>
      </trkpt>
      <trkpt lat="45.22247" lon="6.01899">
        <ele>1696.38</ele>
        <time>2013-07-13T12:37:03Z</time>
      </trkpt>
      <trkpt lat="45.22246" lon="6.01887">
        <ele>1694.94</ele>
        <time>2013-07-13T12:37:11Z</time>
      </trkpt>
      <trkpt lat="45.22245" lon="6.01876">
        <ele>1693.02</ele>
        <time>2013-07-13T12:37:23Z</time>
      </trkpt>
      <trkpt lat="45.22244" lon="6.01856">
        <ele>1692.06</ele>
        <time>2013-07-13T12:37:38Z</time>
      </trkpt>
      <trkpt lat="45.22245" lon="6.01849">
        <ele>1692.54</ele>
        <time>2013-07-13T12:37:43Z</time>
      </trkpt>
      <trkpt lat="45.22244" lon="6.01835">
        <ele>1692.06</ele>
        <time>2013-07-13T12:37:54Z</time>
      </trkpt>
      <trkpt lat="45.22238" lon="6.01827">
        <ele>1690.14</ele>
        <time>2013-07-13T12:38:03Z</time>
      </trkpt>
      <trkpt lat="45.22234" lon="6.01811">
        <ele>1687.73</ele>
        <time>2013-07-13T12:38:15Z</time>
      </trkpt>
      <trkpt lat="45.22233" lon="6.01805">
        <ele>1686.29</ele>
        <time>2013-07-13T12:38:19Z</time>
      </trkpt>
      <trkpt lat="45.22224" lon="6.01792">
        <ele>1681.96</ele>
        <time>2013-07-13T12:38:33Z</time>
      </trkpt>
      <trkpt lat="45.22218" lon="6.01783">
        <ele>1681.48</ele>
        <time>2013-07-13T12:38:44Z</time>
      </trkpt>
      <trkpt lat="45.22218" lon="6.01779">
        <ele>1681.48</ele>
        <time>2013-07-13T12:38:54Z</time>
      </trkpt>
      <trkpt lat="45.22218" lon="6.01774">
        <ele>1681.96</ele>
        <time>2013-07-13T12:38:59Z</time>
      </trkpt>
      <trkpt lat="45.22226" lon="6.01755">
        <ele>1680.52</ele>
        <time>2013-07-13T12:39:12Z</time>
      </trkpt>
      <trkpt lat="45.22227" lon="6.01753">
        <ele>1680.52</ele>
        <time>2013-07-13T12:39:14Z</time>
      </trkpt>
      <trkpt lat="45.22239" lon="6.01753">
        <ele>1679.08</ele>
        <time>2013-07-13T12:39:27Z</time>
      </trkpt>
      <trkpt lat="45.22241" lon="6.01753">
        <ele>1679.08</ele>
        <time>2013-07-13T12:39:30Z</time>
      </trkpt>
      <trkpt lat="45.22248" lon="6.01752">
        <ele>1677.16</ele>
        <time>2013-07-13T12:39:36Z</time>
      </trkpt>
      <trkpt lat="45.22256" lon="6.01752">
        <ele>1676.68</ele>
        <time>2013-07-13T12:39:45Z</time>
      </trkpt>
      <trkpt lat="45.22259" lon="6.01748">
        <ele>1676.2</ele>
        <time>2013-07-13T12:39:50Z</time>
      </trkpt>
      <trkpt lat="45.22262" lon="6.01737">
        <ele>1672.83</ele>
        <time>2013-07-13T12:40:02Z</time>
      </trkpt>
      <trkpt lat="45.22262" lon="6.01729">
        <ele>1672.83</ele>
        <time>2013-07-13T12:40:29Z</time>
      </trkpt>
      <trkpt lat="45.22263" lon="6.0172">
        <ele>1669.95</ele>
        <time>2013-07-13T12:40:41Z</time>
      </trkpt>
      <trkpt lat="45.22263" lon="6.01709">
        <ele>1667.54</ele>
        <time>2013-07-13T12:40:54Z</time>
      </trkpt>
      <trkpt lat="45.22264" lon="6.01694">
        <ele>1667.06</ele>
        <time>2013-07-13T12:41:07Z</time>
      </trkpt>
      <trkpt lat="45.22264" lon="6.01688">
        <ele>1666.1</ele>
        <time>2013-07-13T12:41:13Z</time>
      </trkpt>
      <trkpt lat="45.22266" lon="6.01683">
        <ele>1665.14</ele>
        <time>2013-07-13T12:41:18Z</time>
      </trkpt>
      <trkpt lat="45.22267" lon="6.01671">
        <ele>1664.18</ele>
        <time>2013-07-13T12:41:28Z</time>
      </trkpt>
      <trkpt lat="45.22266" lon="6.01669">
        <ele>1664.18</ele>
        <time>2013-07-13T12:41:30Z</time>
      </trkpt>
      <trkpt lat="45.22266" lon="6.01665">
        <ele>1664.66</ele>
        <time>2013-07-13T12:41:33Z</time>
      </trkpt>
      <trkpt lat="45.22266" lon="6.01662">
        <ele>1664.18</ele>
        <time>2013-07-13T12:41:35Z</time>
      </trkpt>
      <trkpt lat="45.22266" lon="6.01657">
        <ele>1664.18</ele>
        <time>2013-07-13T12:41:40Z</time>
      </trkpt>
      <trkpt lat="45.22267" lon="6.01642">
        <ele>1661.78</ele>
        <time>2013-07-13T12:41:52Z</time>
      </trkpt>
      <trkpt lat="45.22265" lon="6.01631">
        <ele>1663.22</ele>
        <time>2013-07-13T12:42:03Z</time>
      </trkpt>
      <trkpt lat="45.22261" lon="6.01621">
        <ele>1665.14</ele>
        <time>2013-07-13T12:42:15Z</time>
      </trkpt>
      <trkpt lat="45.22262" lon="6.01616">
        <ele>1664.18</ele>
        <time>2013-07-13T12:42:19Z</time>
      </trkpt>
      <trkpt lat="45.2226" lon="6.01603">
        <ele>1663.7</ele>
        <time>2013-07-13T12:42:29Z</time>
      </trkpt>
      <trkpt lat="45.22255" lon="6.01583">
        <ele>1664.18</ele>
        <time>2013-07-13T12:42:43Z</time>
      </trkpt>
      <trkpt lat="45.22252" lon="6.01572">
        <ele>1665.62</ele>
        <time>2013-07-13T12:42:52Z</time>
      </trkpt>
      <trkpt lat="45.22249" lon="6.01558">
        <ele>1666.1</ele>
        <time>2013-07-13T12:43:04Z</time>
      </trkpt>
      <trkpt lat="45.22248" lon="6.01549">
        <ele>1667.54</ele>
        <time>2013-07-13T12:43:21Z</time>
      </trkpt>
      <trkpt lat="45.22251" lon="6.01547">
        <ele>1670.91</ele>
        <time>2013-07-13T12:43:39Z</time>
      </trkpt>
      <trkpt lat="45.22251" lon="6.01548">
        <ele>1670.91</ele>
        <time>2013-07-13T12:44:22Z</time>
      </trkpt>
      <trkpt lat="45.22246" lon="6.01532">
        <ele>1672.35</ele>
        <time>2013-07-13T12:44:35Z</time>
      </trkpt>
      <trkpt lat="45.22245" lon="6.01531">
        <ele>1672.35</ele>
        <time>2013-07-13T12:44:38Z</time>
      </trkpt>
      <trkpt lat="45.22243" lon="6.0152">
        <ele>1672.35</ele>
        <time>2013-07-13T12:44:47Z</time>
      </trkpt>
      <trkpt lat="45.22242" lon="6.01511">
        <ele>1672.83</ele>
        <time>2013-07-13T12:44:53Z</time>
      </trkpt>
      <trkpt lat="45.22239" lon="6.01494">
        <ele>1674.75</ele>
        <time>2013-07-13T12:45:04Z</time>
      </trkpt>
      <trkpt lat="45.22236" lon="6.01486">
        <ele>1675.72</ele>
        <time>2013-07-13T12:45:11Z</time>
      </trkpt>
      <trkpt lat="45.22233" lon="6.01467">
        <ele>1676.68</ele>
        <time>2013-07-13T12:45:25Z</time>
      </trkpt>
      <trkpt lat="45.22233" lon="6.01464">
        <ele>1676.68</ele>
        <time>2013-07-13T12:45:27Z</time>
      </trkpt>
      <trkpt lat="45.22232" lon="6.01457">
        <ele>1677.64</ele>
        <time>2013-07-13T12:45:32Z</time>
      </trkpt>
      <trkpt lat="45.22229" lon="6.01451">
        <ele>1677.64</ele>
        <time>2013-07-13T12:45:37Z</time>
      </trkpt>
      <trkpt lat="45.22225" lon="6.01436">
        <ele>1676.2</ele>
        <time>2013-07-13T12:45:50Z</time>
      </trkpt>
      <trkpt lat="45.22224" lon="6.01431">
        <ele>1676.68</ele>
        <time>2013-07-13T12:46:01Z</time>
      </trkpt>
      <trkpt lat="45.22224" lon="6.01431">
        <ele>1676.68</ele>
        <time>2013-07-13T12:46:15Z</time>
      </trkpt>
      <trkpt lat="45.22224" lon="6.01431">
        <ele>1676.68</ele>
        <time>2013-07-13T12:46:48Z</time>
      </trkpt>
      <trkpt lat="45.22225" lon="6.01431">
        <ele>1677.64</ele>
        <time>2013-07-13T12:47:55Z</time>
      </trkpt>
      <trkpt lat="45.22224" lon="6.0143">
        <ele>1678.6</ele>
        <time>2013-07-13T12:48:05Z</time>
      </trkpt>
      <trkpt lat="45.22225" lon="6.01432">
        <ele>1679.08</ele>
        <time>2013-07-13T12:48:09Z</time>
      </trkpt>
      <trkpt lat="45.22224" lon="6.01432">
        <ele>1679.56</ele>
        <time>2013-07-13T12:48:21Z</time>
      </trkpt>
      <trkpt lat="45.22226" lon="6.01425">
        <ele>1678.6</ele>
        <time>2013-07-13T12:48:43Z</time>
      </trkpt>
      <trkpt lat="45.22228" lon="6.01411">
        <ele>1674.27</ele>
        <time>2013-07-13T12:48:53Z</time>
      </trkpt>
      <trkpt lat="45.22234" lon="6.01393">
        <ele>1673.31</ele>
        <time>2013-07-13T12:49:04Z</time>
      </trkpt>
      <trkpt lat="45.22236" lon="6.01387">
        <ele>1672.83</ele>
        <time>2013-07-13T12:49:07Z</time>
      </trkpt>
      <trkpt lat="45.22245" lon="6.01374">
        <ele>1672.83</ele>
        <time>2013-07-13T12:49:15Z</time>
      </trkpt>
      <trkpt lat="45.22249" lon="6.01372">
        <ele>1673.31</ele>
        <time>2013-07-13T12:49:18Z</time>
      </trkpt>
      <trkpt lat="45.22259" lon="6.01364">
        <ele>1673.79</ele>
        <time>2013-07-13T12:49:27Z</time>
      </trkpt>
      <trkpt lat="45.22264" lon="6.01359">
        <ele>1673.31</ele>
        <time>2013-07-13T12:49:33Z</time>
      </trkpt>
      <trkpt lat="45.22266" lon="6.01356">
        <ele>1673.31</ele>
        <time>2013-07-13T12:49:36Z</time>
      </trkpt>
      <trkpt lat="45.22274" lon="6.01343">
        <ele>1671.87</ele>
        <time>2013-07-13T12:49:49Z</time>
      </trkpt>
      <trkpt lat="45.22276" lon="6.01327">
        <ele>1669.47</ele>
        <time>2013-07-13T12:50:00Z</time>
      </trkpt>
      <trkpt lat="45.22282" lon="6.01305">
        <ele>1667.54</ele>
        <time>2013-07-13T12:50:13Z</time>
      </trkpt>
      <trkpt lat="45.22282" lon="6.013">
        <ele>1664.66</ele>
        <time>2013-07-13T12:50:22Z</time>
      </trkpt>
      <trkpt lat="45.22272" lon="6.01305">
        <ele>1662.26</ele>
        <time>2013-07-13T12:50:30Z</time>
      </trkpt>
      <trkpt lat="45.22258" lon="6.01312">
        <ele>1659.85</ele>
        <time>2013-07-13T12:50:42Z</time>
      </trkpt>
      <trkpt lat="45.22244" lon="6.01314">
        <ele>1656.97</ele>
        <time>2013-07-13T12:50:51Z</time>
      </trkpt>
      <trkpt lat="45.22234" lon="6.01303">
        <ele>1654.09</ele>
        <time>2013-07-13T12:51:04Z</time>
      </trkpt>
      <trkpt lat="45.22229" lon="6.01299">
        <ele>1651.68</ele>
        <time>2013-07-13T12:51:10Z</time>
      </trkpt>
      <trkpt lat="45.22228" lon="6.01284">
        <ele>1646.4</ele>
        <time>2013-07-13T12:51:21Z</time>
      </trkpt>
      <trkpt lat="45.22229" lon="6.01274">
        <ele>1643.03</ele>
        <time>2013-07-13T12:51:27Z</time>
      </trkpt>
      <trkpt lat="45.22231" lon="6.01252">
        <ele>1642.07</ele>
        <time>2013-07-13T12:51:41Z</time>
      </trkpt>
      <trkpt lat="45.22236" lon="6.01236">
        <ele>1642.55</ele>
        <time>2013-07-13T12:51:54Z</time>
      </trkpt>
      <trkpt lat="45.22242" lon="6.01222">
        <ele>1641.59</ele>
        <time>2013-07-13T12:52:08Z</time>
      </trkpt>
      <trkpt lat="45.22242" lon="6.01221">
        <ele>1641.59</ele>
        <time>2013-07-13T12:52:09Z</time>
      </trkpt>
      <trkpt lat="45.22244" lon="6.01218">
        <ele>1641.59</ele>
        <time>2013-07-13T12:52:11Z</time>
      </trkpt>
      <trkpt lat="45.22249" lon="6.01212">
        <ele>1641.11</ele>
        <time>2013-07-13T12:52:16Z</time>
      </trkpt>
      <trkpt lat="45.22259" lon="6.01203">
        <ele>1639.67</ele>
        <time>2013-07-13T12:52:28Z</time>
      </trkpt>
      <trkpt lat="45.22262" lon="6.01197">
        <ele>1638.7</ele>
        <time>2013-07-13T12:52:38Z</time>
      </trkpt>
      <trkpt lat="45.22257" lon="6.0118">
        <ele>1637.74</ele>
        <time>2013-07-13T12:52:51Z</time>
      </trkpt>
      <trkpt lat="45.22248" lon="6.01165">
        <ele>1632.46</ele>
        <time>2013-07-13T12:53:03Z</time>
      </trkpt>
      <trkpt lat="45.22246" lon="6.01162">
        <ele>1631.01</ele>
        <time>2013-07-13T12:53:07Z</time>
      </trkpt>
      <trkpt lat="45.22238" lon="6.01146">
        <ele>1623.32</ele>
        <time>2013-07-13T12:53:20Z</time>
      </trkpt>
      <trkpt lat="45.22237" lon="6.01141">
        <ele>1622.84</ele>
        <time>2013-07-13T12:53:22Z</time>
      </trkpt>
      <trkpt lat="45.22234" lon="6.01127">
        <ele>1619</ele>
        <time>2013-07-13T12:53:30Z</time>
      </trkpt>
      <trkpt lat="45.22234" lon="6.01122">
        <ele>1617.56</ele>
        <time>2013-07-13T12:53:33Z</time>
      </trkpt>
      <trkpt lat="45.22231" lon="6.01112">
        <ele>1614.19</ele>
        <time>2013-07-13T12:53:48Z</time>
      </trkpt>
      <trkpt lat="45.22231" lon="6.01095">
        <ele>1609.86</ele>
        <time>2013-07-13T12:53:59Z</time>
      </trkpt>
      <trkpt lat="45.22228" lon="6.01083">
        <ele>1606.5</ele>
        <time>2013-07-13T12:54:09Z</time>
      </trkpt>
      <trkpt lat="45.22229" lon="6.01066">
        <ele>1602.17</ele>
        <time>2013-07-13T12:54:18Z</time>
      </trkpt>
      <trkpt lat="45.2223" lon="6.01053">
        <ele>1598.33</ele>
        <time>2013-07-13T12:54:27Z</time>
      </trkpt>
      <trkpt lat="45.22227" lon="6.01043">
        <ele>1596.89</ele>
        <time>2013-07-13T12:54:33Z</time>
      </trkpt>
      <trkpt lat="45.22228" lon="6.01039">
        <ele>1596.41</ele>
        <time>2013-07-13T12:54:35Z</time>
      </trkpt>
      <trkpt lat="45.22233" lon="6.01019">
        <ele>1595.45</ele>
        <time>2013-07-13T12:54:47Z</time>
      </trkpt>
      <trkpt lat="45.22231" lon="6.01002">
        <ele>1593.04</ele>
        <time>2013-07-13T12:54:58Z</time>
      </trkpt>
      <trkpt lat="45.2223" lon="6.00999">
        <ele>1592.08</ele>
        <time>2013-07-13T12:55:00Z</time>
      </trkpt>
      <trkpt lat="45.22231" lon="6.00983">
        <ele>1588.24</ele>
        <time>2013-07-13T12:55:14Z</time>
      </trkpt>
      <trkpt lat="45.2223" lon="6.00971">
        <ele>1582.47</ele>
        <time>2013-07-13T12:55:27Z</time>
      </trkpt>
      <trkpt lat="45.22227" lon="6.00957">
        <ele>1579.1</ele>
        <time>2013-07-13T12:55:38Z</time>
      </trkpt>
      <trkpt lat="45.22229" lon="6.00942">
        <ele>1578.14</ele>
        <time>2013-07-13T12:55:50Z</time>
      </trkpt>
      <trkpt lat="45.22228" lon="6.00932">
        <ele>1577.18</ele>
        <time>2013-07-13T12:56:01Z</time>
      </trkpt>
      <trkpt lat="45.22234" lon="6.00924">
        <ele>1576.7</ele>
        <time>2013-07-13T12:56:12Z</time>
      </trkpt>
      <trkpt lat="45.22241" lon="6.0092">
        <ele>1577.18</ele>
        <time>2013-07-13T12:56:24Z</time>
      </trkpt>
      <trkpt lat="45.22243" lon="6.00919">
        <ele>1577.18</ele>
        <time>2013-07-13T12:56:26Z</time>
      </trkpt>
      <trkpt lat="45.22248" lon="6.00912">
        <ele>1576.22</ele>
        <time>2013-07-13T12:56:32Z</time>
      </trkpt>
      <trkpt lat="45.22253" lon="6.00909">
        <ele>1576.22</ele>
        <time>2013-07-13T12:56:35Z</time>
      </trkpt>
      <trkpt lat="45.22256" lon="6.00908">
        <ele>1576.22</ele>
        <time>2013-07-13T12:56:39Z</time>
      </trkpt>
      <trkpt lat="45.22261" lon="6.00898">
        <ele>1575.74</ele>
        <time>2013-07-13T12:56:47Z</time>
      </trkpt>
      <trkpt lat="45.2226" lon="6.0089">
        <ele>1575.74</ele>
        <time>2013-07-13T12:56:53Z</time>
      </trkpt>
      <trkpt lat="45.22254" lon="6.0089">
        <ele>1573.33</ele>
        <time>2013-07-13T12:57:03Z</time>
      </trkpt>
      <trkpt lat="45.22248" lon="6.00885">
        <ele>1571.41</ele>
        <time>2013-07-13T12:57:11Z</time>
      </trkpt>
      <trkpt lat="45.22241" lon="6.0087">
        <ele>1567.57</ele>
        <time>2013-07-13T12:57:24Z</time>
      </trkpt>
      <trkpt lat="45.22241" lon="6.00869">
        <ele>1567.09</ele>
        <time>2013-07-13T12:57:25Z</time>
      </trkpt>
      <trkpt lat="45.22239" lon="6.00868">
        <ele>1566.12</ele>
        <time>2013-07-13T12:57:27Z</time>
      </trkpt>
      <trkpt lat="45.22235" lon="6.00863">
        <ele>1562.76</ele>
        <time>2013-07-13T12:57:34Z</time>
      </trkpt>
      <trkpt lat="45.22234" lon="6.00859">
        <ele>1561.32</ele>
        <time>2013-07-13T12:57:37Z</time>
      </trkpt>
      <trkpt lat="45.22227" lon="6.00844">
        <ele>1554.59</ele>
        <time>2013-07-13T12:57:49Z</time>
      </trkpt>
      <trkpt lat="45.22222" lon="6.00836">
        <ele>1550.74</ele>
        <time>2013-07-13T12:57:58Z</time>
      </trkpt>
      <trkpt lat="45.22214" lon="6.00823">
        <ele>1544.01</ele>
        <time>2013-07-13T12:58:10Z</time>
      </trkpt>
      <trkpt lat="45.22207" lon="6.00809">
        <ele>1538.73</ele>
        <time>2013-07-13T12:58:23Z</time>
      </trkpt>
      <trkpt lat="45.22201" lon="6.00792">
        <ele>1536.32</ele>
        <time>2013-07-13T12:58:36Z</time>
      </trkpt>
      <trkpt lat="45.22201" lon="6.0079">
        <ele>1536.32</ele>
        <time>2013-07-13T12:58:37Z</time>
      </trkpt>
      <trkpt lat="45.22197" lon="6.00775">
        <ele>1535.36</ele>
        <time>2013-07-13T12:58:47Z</time>
      </trkpt>
      <trkpt lat="45.22193" lon="6.00757">
        <ele>1532.96</ele>
        <time>2013-07-13T12:59:01Z</time>
      </trkpt>
      <trkpt lat="45.22193" lon="6.00755">
        <ele>1532.96</ele>
        <time>2013-07-13T12:59:02Z</time>
      </trkpt>
      <trkpt lat="45.22192" lon="6.00749">
        <ele>1532.96</ele>
        <time>2013-07-13T12:59:06Z</time>
      </trkpt>
      <trkpt lat="45.22192" lon="6.00734">
        <ele>1532.48</ele>
        <time>2013-07-13T12:59:15Z</time>
      </trkpt>
      <trkpt lat="45.2219" lon="6.00716">
        <ele>1529.59</ele>
        <time>2013-07-13T12:59:29Z</time>
      </trkpt>
      <trkpt lat="45.2219" lon="6.00702">
        <ele>1527.19</ele>
        <time>2013-07-13T12:59:42Z</time>
      </trkpt>
      <trkpt lat="45.22191" lon="6.00686">
        <ele>1526.71</ele>
        <time>2013-07-13T12:59:54Z</time>
      </trkpt>
      <trkpt lat="45.2219" lon="6.0067">
        <ele>1524.31</ele>
        <time>2013-07-13T13:00:07Z</time>
      </trkpt>
      <trkpt lat="45.22196" lon="6.00648">
        <ele>1517.58</ele>
        <time>2013-07-13T13:00:22Z</time>
      </trkpt>
      <trkpt lat="45.22192" lon="6.0063">
        <ele>1511.81</ele>
        <time>2013-07-13T13:00:35Z</time>
      </trkpt>
      <trkpt lat="45.22189" lon="6.00612">
        <ele>1505.08</ele>
        <time>2013-07-13T13:00:47Z</time>
      </trkpt>
      <trkpt lat="45.22188" lon="6.00611">
        <ele>1504.12</ele>
        <time>2013-07-13T13:00:48Z</time>
      </trkpt>
      <trkpt lat="45.22186" lon="6.00599">
        <ele>1502.68</ele>
        <time>2013-07-13T13:00:54Z</time>
      </trkpt>
      <trkpt lat="45.22192" lon="6.0058">
        <ele>1502.68</ele>
        <time>2013-07-13T13:01:08Z</time>
      </trkpt>
      <trkpt lat="45.22195" lon="6.00559">
        <ele>1501.72</ele>
        <time>2013-07-13T13:01:22Z</time>
      </trkpt>
      <trkpt lat="45.22195" lon="6.00544">
        <ele>1500.76</ele>
        <time>2013-07-13T13:01:33Z</time>
      </trkpt>
      <trkpt lat="45.22194" lon="6.00526">
        <ele>1498.35</ele>
        <time>2013-07-13T13:01:44Z</time>
      </trkpt>
      <trkpt lat="45.22193" lon="6.00507">
        <ele>1494.99</ele>
        <time>2013-07-13T13:01:57Z</time>
      </trkpt>
      <trkpt lat="45.22195" lon="6.00489">
        <ele>1488.26</ele>
        <time>2013-07-13T13:02:10Z</time>
      </trkpt>
      <trkpt lat="45.22196" lon="6.00487">
        <ele>1486.82</ele>
        <time>2013-07-13T13:02:12Z</time>
      </trkpt>
      <trkpt lat="45.22202" lon="6.00492">
        <ele>1483.93</ele>
        <time>2013-07-13T13:02:21Z</time>
      </trkpt>
      <trkpt lat="45.22204" lon="6.00494">
        <ele>1483.45</ele>
        <time>2013-07-13T13:02:23Z</time>
      </trkpt>
      <trkpt lat="45.22206" lon="6.00496">
        <ele>1483.93</ele>
        <time>2013-07-13T13:02:25Z</time>
      </trkpt>
      <trkpt lat="45.22208" lon="6.00499">
        <ele>1483.93</ele>
        <time>2013-07-13T13:02:27Z</time>
      </trkpt>
      <trkpt lat="45.22217" lon="6.00505">
        <ele>1485.37</ele>
        <time>2013-07-13T13:02:34Z</time>
      </trkpt>
      <trkpt lat="45.22221" lon="6.00507">
        <ele>1485.85</ele>
        <time>2013-07-13T13:02:37Z</time>
      </trkpt>
      <trkpt lat="45.22225" lon="6.00508">
        <ele>1485.37</ele>
        <time>2013-07-13T13:02:41Z</time>
      </trkpt>
      <trkpt lat="45.22231" lon="6.00507">
        <ele>1485.85</ele>
        <time>2013-07-13T13:02:47Z</time>
      </trkpt>
      <trkpt lat="45.22243" lon="6.00507">
        <ele>1484.89</ele>
        <time>2013-07-13T13:02:59Z</time>
      </trkpt>
      <trkpt lat="45.22239" lon="6.00501">
        <ele>1483.93</ele>
        <time>2013-07-13T13:03:07Z</time>
      </trkpt>
      <trkpt lat="45.22238" lon="6.00497">
        <ele>1483.45</ele>
        <time>2013-07-13T13:03:10Z</time>
      </trkpt>
      <trkpt lat="45.22235" lon="6.00493">
        <ele>1482.49</ele>
        <time>2013-07-13T13:03:14Z</time>
      </trkpt>
      <trkpt lat="45.22229" lon="6.00482">
        <ele>1480.09</ele>
        <time>2013-07-13T13:03:25Z</time>
      </trkpt>
      <trkpt lat="45.22234" lon="6.00464">
        <ele>1479.13</ele>
        <time>2013-07-13T13:03:38Z</time>
      </trkpt>
      <trkpt lat="45.22233" lon="6.00464">
        <ele>1478.65</ele>
        <time>2013-07-13T13:03:53Z</time>
      </trkpt>
      <trkpt lat="45.22231" lon="6.00464">
        <ele>1479.13</ele>
        <time>2013-07-13T13:04:42Z</time>
      </trkpt>
      <trkpt lat="45.2223" lon="6.00452">
        <ele>1476.24</ele>
        <time>2013-07-13T13:06:21Z</time>
      </trkpt>
      <trkpt lat="45.2223" lon="6.00451">
        <ele>1475.76</ele>
        <time>2013-07-13T13:06:22Z</time>
      </trkpt>
      <trkpt lat="45.22233" lon="6.00441">
        <ele>1473.36</ele>
        <time>2013-07-13T13:06:34Z</time>
      </trkpt>
      <trkpt lat="45.22241" lon="6.0043">
        <ele>1469.51</ele>
        <time>2013-07-13T13:06:44Z</time>
      </trkpt>
      <trkpt lat="45.22251" lon="6.00432">
        <ele>1462.78</ele>
        <time>2013-07-13T13:06:57Z</time>
      </trkpt>
      <trkpt lat="45.22252" lon="6.00433">
        <ele>1461.82</ele>
        <time>2013-07-13T13:06:59Z</time>
      </trkpt>
      <trkpt lat="45.22255" lon="6.00432">
        <ele>1459.9</ele>
        <time>2013-07-13T13:07:02Z</time>
      </trkpt>
      <trkpt lat="45.22258" lon="6.00433">
        <ele>1458.94</ele>
        <time>2013-07-13T13:07:05Z</time>
      </trkpt>
      <trkpt lat="45.22264" lon="6.00431">
        <ele>1456.53</ele>
        <time>2013-07-13T13:07:13Z</time>
      </trkpt>
      <trkpt lat="45.22272" lon="6.00427">
        <ele>1456.05</ele>
        <time>2013-07-13T13:07:21Z</time>
      </trkpt>
      <trkpt lat="45.22274" lon="6.00427">
        <ele>1456.05</ele>
        <time>2013-07-13T13:07:23Z</time>
      </trkpt>
      <trkpt lat="45.22281" lon="6.00429">
        <ele>1456.05</ele>
        <time>2013-07-13T13:07:31Z</time>
      </trkpt>
      <trkpt lat="45.22287" lon="6.00432">
        <ele>1456.05</ele>
        <time>2013-07-13T13:07:36Z</time>
      </trkpt>
      <trkpt lat="45.22291" lon="6.00433">
        <ele>1456.05</ele>
        <time>2013-07-13T13:07:39Z</time>
      </trkpt>
      <trkpt lat="45.223" lon="6.00433">
        <ele>1456.05</ele>
        <time>2013-07-13T13:07:46Z</time>
      </trkpt>
      <trkpt lat="45.22303" lon="6.00431">
        <ele>1456.05</ele>
        <time>2013-07-13T13:07:48Z</time>
      </trkpt>
      <trkpt lat="45.22317" lon="6.00416">
        <ele>1456.05</ele>
        <time>2013-07-13T13:08:00Z</time>
      </trkpt>
      <trkpt lat="45.2232" lon="6.00412">
        <ele>1456.05</ele>
        <time>2013-07-13T13:08:03Z</time>
      </trkpt>
      <trkpt lat="45.22327" lon="6.00408">
        <ele>1453.65</ele>
        <time>2013-07-13T13:08:10Z</time>
      </trkpt>
      <trkpt lat="45.22336" lon="6.00393">
        <ele>1452.21</ele>
        <time>2013-07-13T13:08:21Z</time>
      </trkpt>
      <trkpt lat="45.22335" lon="6.00377">
        <ele>1449.32</ele>
        <time>2013-07-13T13:08:33Z</time>
      </trkpt>
      <trkpt lat="45.22334" lon="6.00373">
        <ele>1447.4</ele>
        <time>2013-07-13T13:08:38Z</time>
      </trkpt>
      <trkpt lat="45.22332" lon="6.00369">
        <ele>1446.44</ele>
        <time>2013-07-13T13:08:41Z</time>
      </trkpt>
      <trkpt lat="45.22332" lon="6.0035">
        <ele>1441.15</ele>
        <time>2013-07-13T13:08:53Z</time>
      </trkpt>
      <trkpt lat="45.22328" lon="6.00329">
        <ele>1434.91</ele>
        <time>2013-07-13T13:09:06Z</time>
      </trkpt>
      <trkpt lat="45.22323" lon="6.00319">
        <ele>1431.06</ele>
        <time>2013-07-13T13:09:14Z</time>
      </trkpt>
      <trkpt lat="45.22317" lon="6.00312">
        <ele>1428.18</ele>
        <time>2013-07-13T13:09:20Z</time>
      </trkpt>
      <trkpt lat="45.22313" lon="6.00299">
        <ele>1425.29</ele>
        <time>2013-07-13T13:09:28Z</time>
      </trkpt>
      <trkpt lat="45.22311" lon="6.00288">
        <ele>1421.93</ele>
        <time>2013-07-13T13:09:35Z</time>
      </trkpt>
      <trkpt lat="45.22308" lon="6.00269">
        <ele>1419.52</ele>
        <time>2013-07-13T13:09:47Z</time>
      </trkpt>
      <trkpt lat="45.22301" lon="6.00257">
        <ele>1416.16</ele>
        <time>2013-07-13T13:09:59Z</time>
      </trkpt>
      <trkpt lat="45.22298" lon="6.00244">
        <ele>1412.31</ele>
        <time>2013-07-13T13:10:13Z</time>
      </trkpt>
      <trkpt lat="45.223" lon="6.00226">
        <ele>1408.47</ele>
        <time>2013-07-13T13:10:27Z</time>
      </trkpt>
      <trkpt lat="45.22303" lon="6.00215">
        <ele>1405.1</ele>
        <time>2013-07-13T13:10:39Z</time>
      </trkpt>
      <trkpt lat="45.22303" lon="6.00214">
        <ele>1404.62</ele>
        <time>2013-07-13T13:10:40Z</time>
      </trkpt>
      <trkpt lat="45.22311" lon="6.00213">
        <ele>1401.26</ele>
        <time>2013-07-13T13:10:47Z</time>
      </trkpt>
      <trkpt lat="45.22321" lon="6.00207">
        <ele>1396.93</ele>
        <time>2013-07-13T13:10:56Z</time>
      </trkpt>
      <trkpt lat="45.22333" lon="6.002">
        <ele>1390.68</ele>
        <time>2013-07-13T13:11:09Z</time>
      </trkpt>
      <trkpt lat="45.22334" lon="6.002">
        <ele>1391.17</ele>
        <time>2013-07-13T13:11:10Z</time>
      </trkpt>
      <trkpt lat="45.2234" lon="6.0019">
        <ele>1391.17</ele>
        <time>2013-07-13T13:11:17Z</time>
      </trkpt>
      <trkpt lat="45.22351" lon="6.00177">
        <ele>1392.13</ele>
        <time>2013-07-13T13:11:28Z</time>
      </trkpt>
      <trkpt lat="45.22356" lon="6.00171">
        <ele>1392.61</ele>
        <time>2013-07-13T13:11:33Z</time>
      </trkpt>
      <trkpt lat="45.22359" lon="6.00169">
        <ele>1392.61</ele>
        <time>2013-07-13T13:11:36Z</time>
      </trkpt>
      <trkpt lat="45.22371" lon="6.00151">
        <ele>1392.13</ele>
        <time>2013-07-13T13:11:50Z</time>
      </trkpt>
      <trkpt lat="45.22383" lon="6.00147">
        <ele>1392.61</ele>
        <time>2013-07-13T13:12:03Z</time>
      </trkpt>
      <trkpt lat="45.22391" lon="6.00144">
        <ele>1392.61</ele>
        <time>2013-07-13T13:12:09Z</time>
      </trkpt>
      <trkpt lat="45.22396" lon="6.00141">
        <ele>1392.61</ele>
        <time>2013-07-13T13:12:13Z</time>
      </trkpt>
      <trkpt lat="45.22403" lon="6.00135">
        <ele>1393.09</ele>
        <time>2013-07-13T13:12:18Z</time>
      </trkpt>
      <trkpt lat="45.22414" lon="6.00126">
        <ele>1393.57</ele>
        <time>2013-07-13T13:12:27Z</time>
      </trkpt>
      <trkpt lat="45.22417" lon="6.00121">
        <ele>1394.05</ele>
        <time>2013-07-13T13:12:31Z</time>
      </trkpt>
      <trkpt lat="45.22419" lon="6.00116">
        <ele>1395.49</ele>
        <time>2013-07-13T13:12:48Z</time>
      </trkpt>
      <trkpt lat="45.22419" lon="6.00116">
        <ele>1395.49</ele>
        <time>2013-07-13T13:13:21Z</time>
      </trkpt>
      <trkpt lat="45.22422" lon="6.00113">
        <ele>1395.49</ele>
        <time>2013-07-13T13:13:30Z</time>
      </trkpt>
      <trkpt lat="45.22434" lon="6.00099">
        <ele>1393.57</ele>
        <time>2013-07-13T13:13:43Z</time>
      </trkpt>
      <trkpt lat="45.2244" lon="6.00092">
        <ele>1393.57</ele>
        <time>2013-07-13T13:13:50Z</time>
      </trkpt>
      <trkpt lat="45.22443" lon="6.0009">
        <ele>1393.57</ele>
        <time>2013-07-13T13:13:52Z</time>
      </trkpt>
      <trkpt lat="45.2245" lon="6.00079">
        <ele>1393.09</ele>
        <time>2013-07-13T13:14:02Z</time>
      </trkpt>
      <trkpt lat="45.2246" lon="6.00061">
        <ele>1394.05</ele>
        <time>2013-07-13T13:14:14Z</time>
      </trkpt>
      <trkpt lat="45.22463" lon="6.00057">
        <ele>1393.57</ele>
        <time>2013-07-13T13:14:17Z</time>
      </trkpt>
      <trkpt lat="45.22472" lon="6.00045">
        <ele>1395.01</ele>
        <time>2013-07-13T13:14:27Z</time>
      </trkpt>
      <trkpt lat="45.22476" lon="6.00037">
        <ele>1394.53</ele>
        <time>2013-07-13T13:14:40Z</time>
      </trkpt>
      <trkpt lat="45.22477" lon="6.00034">
        <ele>1393.57</ele>
        <time>2013-07-13T13:14:43Z</time>
      </trkpt>
      <trkpt lat="45.22485" lon="6.00023">
        <ele>1391.17</ele>
        <time>2013-07-13T13:14:55Z</time>
      </trkpt>
      <trkpt lat="45.22488" lon="6.00021">
        <ele>1389.72</ele>
        <time>2013-07-13T13:14:58Z</time>
      </trkpt>
      <trkpt lat="45.22491" lon="6.0002">
        <ele>1388.76</ele>
        <time>2013-07-13T13:15:01Z</time>
      </trkpt>
      <trkpt lat="45.22496" lon="6.00009">
        <ele>1384.44</ele>
        <time>2013-07-13T13:15:11Z</time>
      </trkpt>
      <trkpt lat="45.22498" lon="6.00001">
        <ele>1383.47</ele>
        <time>2013-07-13T13:15:15Z</time>
      </trkpt>
      <trkpt lat="45.22502" lon="5.99988">
        <ele>1381.55</ele>
        <time>2013-07-13T13:15:25Z</time>
      </trkpt>
      <trkpt lat="45.22502" lon="5.99972">
        <ele>1380.59</ele>
        <time>2013-07-13T13:15:37Z</time>
      </trkpt>
      <trkpt lat="45.22506" lon="5.99951">
        <ele>1378.67</ele>
        <time>2013-07-13T13:15:50Z</time>
      </trkpt>
      <trkpt lat="45.22508" lon="5.99934">
        <ele>1377.23</ele>
        <time>2013-07-13T13:16:01Z</time>
      </trkpt>
      <trkpt lat="45.22511" lon="5.99928">
        <ele>1376.75</ele>
        <time>2013-07-13T13:16:06Z</time>
      </trkpt>
      <trkpt lat="45.22515" lon="5.99914">
        <ele>1375.78</ele>
        <time>2013-07-13T13:16:17Z</time>
      </trkpt>
      <trkpt lat="45.22516" lon="5.99897">
        <ele>1374.34</ele>
        <time>2013-07-13T13:16:30Z</time>
      </trkpt>
      <trkpt lat="45.22515" lon="5.99893">
        <ele>1373.86</ele>
        <time>2013-07-13T13:16:32Z</time>
      </trkpt>
      <trkpt lat="45.22514" lon="5.99887">
        <ele>1373.86</ele>
        <time>2013-07-13T13:16:35Z</time>
      </trkpt>
      <trkpt lat="45.22519" lon="5.99869">
        <ele>1372.9</ele>
        <time>2013-07-13T13:16:47Z</time>
      </trkpt>
      <trkpt lat="45.22528" lon="5.99847">
        <ele>1371.94</ele>
        <time>2013-07-13T13:17:01Z</time>
      </trkpt>
      <trkpt lat="45.22531" lon="5.99826">
        <ele>1367.61</ele>
        <time>2013-07-13T13:17:13Z</time>
      </trkpt>
      <trkpt lat="45.22532" lon="5.9981">
        <ele>1360.4</ele>
        <time>2013-07-13T13:17:25Z</time>
      </trkpt>
      <trkpt lat="45.22534" lon="5.99795">
        <ele>1357.52</ele>
        <time>2013-07-13T13:17:37Z</time>
      </trkpt>
      <trkpt lat="45.22534" lon="5.99795">
        <ele>1356.08</ele>
        <time>2013-07-13T13:18:10Z</time>
      </trkpt>
      <trkpt lat="45.22534" lon="5.99792">
        <ele>1353.19</ele>
        <time>2013-07-13T13:18:32Z</time>
      </trkpt>
      <trkpt lat="45.22535" lon="5.99786">
        <ele>1352.23</ele>
        <time>2013-07-13T13:18:35Z</time>
      </trkpt>
      <trkpt lat="45.22535" lon="5.99777">
        <ele>1350.79</ele>
        <time>2013-07-13T13:18:41Z</time>
      </trkpt>
      <trkpt lat="45.22529" lon="5.9977">
        <ele>1349.35</ele>
        <time>2013-07-13T13:18:48Z</time>
      </trkpt>
      <trkpt lat="45.22525" lon="5.99772">
        <ele>1348.87</ele>
        <time>2013-07-13T13:18:54Z</time>
      </trkpt>
      <trkpt lat="45.22523" lon="5.99781">
        <ele>1347.43</ele>
        <time>2013-07-13T13:19:06Z</time>
      </trkpt>
      <trkpt lat="45.22523" lon="5.99782">
        <ele>1347.43</ele>
        <time>2013-07-13T13:19:22Z</time>
      </trkpt>
      <trkpt lat="45.22522" lon="5.99783">
        <ele>1347.91</ele>
        <time>2013-07-13T13:19:33Z</time>
      </trkpt>
      <trkpt lat="45.22523" lon="5.99784">
        <ele>1348.39</ele>
        <time>2013-07-13T13:19:38Z</time>
      </trkpt>
      <trkpt lat="45.22525" lon="5.99805">
        <ele>1348.39</ele>
        <time>2013-07-13T13:19:52Z</time>
      </trkpt>
      <trkpt lat="45.22523" lon="5.99812">
        <ele>1348.87</ele>
        <time>2013-07-13T13:19:57Z</time>
      </trkpt>
      <trkpt lat="45.22516" lon="5.99827">
        <ele>1348.39</ele>
        <time>2013-07-13T13:20:11Z</time>
      </trkpt>
      <trkpt lat="45.22503" lon="5.99841">
        <ele>1348.39</ele>
        <time>2013-07-13T13:20:29Z</time>
      </trkpt>
      <trkpt lat="45.22495" lon="5.99853">
        <ele>1347.91</ele>
        <time>2013-07-13T13:20:44Z</time>
      </trkpt>
      <trkpt lat="45.22495" lon="5.99853">
        <ele>1347.91</ele>
        <time>2013-07-13T13:20:51Z</time>
      </trkpt>
      <trkpt lat="45.2249" lon="5.99854">
        <ele>1348.39</ele>
        <time>2013-07-13T13:21:03Z</time>
      </trkpt>
      <trkpt lat="45.2249" lon="5.99852">
        <ele>1349.35</ele>
        <time>2013-07-13T13:21:48Z</time>
      </trkpt>
      <trkpt lat="45.22489" lon="5.99851">
        <ele>1348.87</ele>
        <time>2013-07-13T13:24:05Z</time>
      </trkpt>
      <trkpt lat="45.22488" lon="5.9985">
        <ele>1348.87</ele>
        <time>2013-07-13T13:24:14Z</time>
      </trkpt>
      <trkpt lat="45.22488" lon="5.9985">
        <ele>1348.87</ele>
        <time>2013-07-13T13:24:21Z</time>
      </trkpt>
    </trkseg>
  </trk>
</gpx>